<?xml version="1.0" encoding="UTF-8" standalone="no" ?>
<gpx xmlns="http://www.topografix.com/GPX/1/1" xmlns:xsi="http://www.w3.org/2001/XMLSchema-instance" xsi:schemaLocation="http://www.topografix.com/GPX/1/1 http://www.topografix.com/GPX/1/1/gpx.xsd" version="1.1" creator="VisuGPX - https://www.visugpx.com">
  <metadata>
    <name>Baigorry  Aharza ArtzainHarria Munhoa</name>
    <desc><![CDATA[Circuit au départ du col d'Aharza 737m à St Etienne de Baigorry  qui nous fera gravir Artzain-Harria 971m, Puis Munhoa 1021m. 
Descente par le col d'Urdanzia 872m, remontée à la fontaine d'Urdanzia 920m, descente au col de Leitzartze 828m en suivant le Gr10 , puis contournement ouest  du Munhogain et retour au col d'Aharza.
Circuit mêlant petite route de montagne, pistes, sentiers, sentes et crêtes panoramiques.
Circuit qui peut être raccourci en démarrant du col d'Urdanzia et rallongé en gravissant Oilarandoi pour finir.

[url=https://gb-rando.blogspot.com/2026/08/baigorri-aharza-artzainharria-munhoa.html]voir rando[/url]]]></desc>
  </metadata>
  <trk>
    <name><![CDATA[AHARZA MUNHOA  0:01]]></name>
    <trkseg>
      <trkpt lat="43.14511" lon="-1.33531">
        <ele>710.02</ele>
        <time>2026-08-29T06:41:24Z</time>
      </trkpt>
      <trkpt lat="43.1451" lon="-1.33531">
        <ele>710.02</ele>
        <time>2026-08-29T06:41:25Z</time>
      </trkpt>
      <trkpt lat="43.14496" lon="-1.33554">
        <ele>708.71</ele>
        <time>2026-08-29T06:41:50Z</time>
      </trkpt>
      <trkpt lat="43.14495" lon="-1.33558">
        <ele>708.16</ele>
        <time>2026-08-29T06:42:18Z</time>
      </trkpt>
      <trkpt lat="43.14495" lon="-1.33556">
        <ele>709.57</ele>
        <time>2026-08-29T06:42:47Z</time>
      </trkpt>
      <trkpt lat="43.14495" lon="-1.33555">
        <ele>709.81</ele>
        <time>2026-08-29T06:43:13Z</time>
      </trkpt>
      <trkpt lat="43.14492" lon="-1.3355">
        <ele>709.89</ele>
        <time>2026-08-29T06:43:30Z</time>
      </trkpt>
      <trkpt lat="43.14488" lon="-1.33541">
        <ele>709.88</ele>
        <time>2026-08-29T06:43:37Z</time>
      </trkpt>
      <trkpt lat="43.14483" lon="-1.33535">
        <ele>709.61</ele>
        <time>2026-08-29T06:43:43Z</time>
      </trkpt>
      <trkpt lat="43.14476" lon="-1.33528">
        <ele>709.87</ele>
        <time>2026-08-29T06:44:01Z</time>
      </trkpt>
      <trkpt lat="43.14475" lon="-1.33526">
        <ele>710.21</ele>
        <time>2026-08-29T06:44:19Z</time>
      </trkpt>
      <trkpt lat="43.14468" lon="-1.33523">
        <ele>710.04</ele>
        <time>2026-08-29T06:44:26Z</time>
      </trkpt>
      <trkpt lat="43.14454" lon="-1.3352">
        <ele>708.53</ele>
        <time>2026-08-29T06:44:39Z</time>
      </trkpt>
      <trkpt lat="43.14432" lon="-1.3351">
        <ele>707.7</ele>
        <time>2026-08-29T06:45:02Z</time>
      </trkpt>
      <trkpt lat="43.14417" lon="-1.33502">
        <ele>707.84</ele>
        <time>2026-08-29T06:45:24Z</time>
      </trkpt>
      <trkpt lat="43.14415" lon="-1.33502">
        <ele>707.54</ele>
        <time>2026-08-29T06:45:26Z</time>
      </trkpt>
      <trkpt lat="43.14389" lon="-1.33499">
        <ele>706.81</ele>
        <time>2026-08-29T06:45:51Z</time>
      </trkpt>
      <trkpt lat="43.14388" lon="-1.33499">
        <ele>706.6</ele>
        <time>2026-08-29T06:45:52Z</time>
      </trkpt>
      <trkpt lat="43.14383" lon="-1.33498">
        <ele>706.66</ele>
        <time>2026-08-29T06:45:56Z</time>
      </trkpt>
      <trkpt lat="43.1437" lon="-1.33498">
        <ele>706.02</ele>
        <time>2026-08-29T06:46:09Z</time>
      </trkpt>
      <trkpt lat="43.14355" lon="-1.33492">
        <ele>705.88</ele>
        <time>2026-08-29T06:46:24Z</time>
      </trkpt>
      <trkpt lat="43.14343" lon="-1.33486">
        <ele>705.63</ele>
        <time>2026-08-29T06:46:35Z</time>
      </trkpt>
      <trkpt lat="43.14339" lon="-1.33476">
        <ele>705.71</ele>
        <time>2026-08-29T06:46:42Z</time>
      </trkpt>
      <trkpt lat="43.14337" lon="-1.3347">
        <ele>705.7</ele>
        <time>2026-08-29T06:46:46Z</time>
      </trkpt>
      <trkpt lat="43.14337" lon="-1.33449">
        <ele>704.38</ele>
        <time>2026-08-29T06:46:59Z</time>
      </trkpt>
      <trkpt lat="43.1434" lon="-1.33442">
        <ele>703.8</ele>
        <time>2026-08-29T06:47:04Z</time>
      </trkpt>
      <trkpt lat="43.1434" lon="-1.33435">
        <ele>703.85</ele>
        <time>2026-08-29T06:47:10Z</time>
      </trkpt>
      <trkpt lat="43.14342" lon="-1.33418">
        <ele>702.88</ele>
        <time>2026-08-29T06:47:23Z</time>
      </trkpt>
      <trkpt lat="43.14348" lon="-1.33387">
        <ele>701.46</ele>
        <time>2026-08-29T06:47:47Z</time>
      </trkpt>
      <trkpt lat="43.14352" lon="-1.33356">
        <ele>700.22</ele>
        <time>2026-08-29T06:48:10Z</time>
      </trkpt>
      <trkpt lat="43.14358" lon="-1.33328">
        <ele>699.52</ele>
        <time>2026-08-29T06:48:30Z</time>
      </trkpt>
      <trkpt lat="43.14371" lon="-1.33298">
        <ele>698.72</ele>
        <time>2026-08-29T06:48:54Z</time>
      </trkpt>
      <trkpt lat="43.14373" lon="-1.3329">
        <ele>698.34</ele>
        <time>2026-08-29T06:49:00Z</time>
      </trkpt>
      <trkpt lat="43.14369" lon="-1.33275">
        <ele>698.01</ele>
        <time>2026-08-29T06:49:12Z</time>
      </trkpt>
      <trkpt lat="43.14367" lon="-1.33272">
        <ele>697.69</ele>
        <time>2026-08-29T06:49:15Z</time>
      </trkpt>
      <trkpt lat="43.14363" lon="-1.33266">
        <ele>697.72</ele>
        <time>2026-08-29T06:49:21Z</time>
      </trkpt>
      <trkpt lat="43.14358" lon="-1.33256">
        <ele>698.45</ele>
        <time>2026-08-29T06:49:37Z</time>
      </trkpt>
      <trkpt lat="43.1435" lon="-1.33246">
        <ele>698.53</ele>
        <time>2026-08-29T06:49:56Z</time>
      </trkpt>
      <trkpt lat="43.14339" lon="-1.33222">
        <ele>698.67</ele>
        <time>2026-08-29T06:50:16Z</time>
      </trkpt>
      <trkpt lat="43.14338" lon="-1.33192">
        <ele>698.88</ele>
        <time>2026-08-29T06:50:36Z</time>
      </trkpt>
      <trkpt lat="43.14337" lon="-1.33164">
        <ele>699.24</ele>
        <time>2026-08-29T06:50:53Z</time>
      </trkpt>
      <trkpt lat="43.14333" lon="-1.33142">
        <ele>700.11</ele>
        <time>2026-08-29T06:51:09Z</time>
      </trkpt>
      <trkpt lat="43.14333" lon="-1.33134">
        <ele>700.6</ele>
        <time>2026-08-29T06:51:14Z</time>
      </trkpt>
      <trkpt lat="43.14334" lon="-1.33106">
        <ele>701.36</ele>
        <time>2026-08-29T06:51:33Z</time>
      </trkpt>
      <trkpt lat="43.14329" lon="-1.33081">
        <ele>701.69</ele>
        <time>2026-08-29T06:51:52Z</time>
      </trkpt>
      <trkpt lat="43.14326" lon="-1.33071">
        <ele>701.45</ele>
        <time>2026-08-29T06:52:04Z</time>
      </trkpt>
      <trkpt lat="43.14323" lon="-1.3307">
        <ele>701</ele>
        <time>2026-08-29T06:52:08Z</time>
      </trkpt>
      <trkpt lat="43.14311" lon="-1.33068">
        <ele>701.39</ele>
        <time>2026-08-29T06:52:19Z</time>
      </trkpt>
      <trkpt lat="43.14309" lon="-1.33068">
        <ele>701.33</ele>
        <time>2026-08-29T06:52:21Z</time>
      </trkpt>
      <trkpt lat="43.14299" lon="-1.33069">
        <ele>701.76</ele>
        <time>2026-08-29T06:52:32Z</time>
      </trkpt>
      <trkpt lat="43.14287" lon="-1.33068">
        <ele>701.2</ele>
        <time>2026-08-29T06:52:44Z</time>
      </trkpt>
      <trkpt lat="43.14282" lon="-1.33069">
        <ele>700.77</ele>
        <time>2026-08-29T06:52:50Z</time>
      </trkpt>
      <trkpt lat="43.14278" lon="-1.33068">
        <ele>701.02</ele>
        <time>2026-08-29T06:52:53Z</time>
      </trkpt>
      <trkpt lat="43.14273" lon="-1.33067">
        <ele>700.63</ele>
        <time>2026-08-29T06:52:58Z</time>
      </trkpt>
      <trkpt lat="43.14261" lon="-1.33061">
        <ele>700.86</ele>
        <time>2026-08-29T06:53:10Z</time>
      </trkpt>
      <trkpt lat="43.1424" lon="-1.33041">
        <ele>699.87</ele>
        <time>2026-08-29T06:53:34Z</time>
      </trkpt>
      <trkpt lat="43.1423" lon="-1.33034">
        <ele>700.2</ele>
        <time>2026-08-29T06:53:46Z</time>
      </trkpt>
      <trkpt lat="43.14224" lon="-1.33029">
        <ele>699.35</ele>
        <time>2026-08-29T06:53:54Z</time>
      </trkpt>
      <trkpt lat="43.14219" lon="-1.33027">
        <ele>699.55</ele>
        <time>2026-08-29T06:53:58Z</time>
      </trkpt>
      <trkpt lat="43.14217" lon="-1.33027">
        <ele>699.31</ele>
        <time>2026-08-29T06:54:00Z</time>
      </trkpt>
      <trkpt lat="43.142" lon="-1.3302">
        <ele>699.28</ele>
        <time>2026-08-29T06:54:18Z</time>
      </trkpt>
      <trkpt lat="43.14187" lon="-1.33015">
        <ele>699.25</ele>
        <time>2026-08-29T06:54:37Z</time>
      </trkpt>
      <trkpt lat="43.14184" lon="-1.33006">
        <ele>699.48</ele>
        <time>2026-08-29T06:55:04Z</time>
      </trkpt>
      <trkpt lat="43.14181" lon="-1.33005">
        <ele>699.4</ele>
        <time>2026-08-29T06:55:26Z</time>
      </trkpt>
      <trkpt lat="43.14174" lon="-1.33001">
        <ele>699.14</ele>
        <time>2026-08-29T06:55:41Z</time>
      </trkpt>
      <trkpt lat="43.1417" lon="-1.32994">
        <ele>699.5</ele>
        <time>2026-08-29T06:55:45Z</time>
      </trkpt>
      <trkpt lat="43.1416" lon="-1.32981">
        <ele>698.4</ele>
        <time>2026-08-29T06:55:56Z</time>
      </trkpt>
      <trkpt lat="43.14147" lon="-1.32977">
        <ele>698</ele>
        <time>2026-08-29T06:56:09Z</time>
      </trkpt>
      <trkpt lat="43.14133" lon="-1.32972">
        <ele>697.12</ele>
        <time>2026-08-29T06:56:23Z</time>
      </trkpt>
      <trkpt lat="43.1413" lon="-1.32972">
        <ele>697.51</ele>
        <time>2026-08-29T06:56:25Z</time>
      </trkpt>
      <trkpt lat="43.14129" lon="-1.32971">
        <ele>697.4</ele>
        <time>2026-08-29T06:56:27Z</time>
      </trkpt>
      <trkpt lat="43.14114" lon="-1.32965">
        <ele>697.04</ele>
        <time>2026-08-29T06:56:41Z</time>
      </trkpt>
      <trkpt lat="43.14109" lon="-1.32965">
        <ele>697.23</ele>
        <time>2026-08-29T06:56:45Z</time>
      </trkpt>
      <trkpt lat="43.14098" lon="-1.32961">
        <ele>697.16</ele>
        <time>2026-08-29T06:56:55Z</time>
      </trkpt>
      <trkpt lat="43.14086" lon="-1.3296">
        <ele>697.02</ele>
        <time>2026-08-29T06:57:04Z</time>
      </trkpt>
      <trkpt lat="43.14085" lon="-1.32961">
        <ele>696.98</ele>
        <time>2026-08-29T06:57:05Z</time>
      </trkpt>
      <trkpt lat="43.14079" lon="-1.32955">
        <ele>697.1</ele>
        <time>2026-08-29T06:57:17Z</time>
      </trkpt>
      <trkpt lat="43.14072" lon="-1.32955">
        <ele>696.98</ele>
        <time>2026-08-29T06:57:21Z</time>
      </trkpt>
      <trkpt lat="43.14069" lon="-1.32953">
        <ele>696.96</ele>
        <time>2026-08-29T06:57:25Z</time>
      </trkpt>
      <trkpt lat="43.14064" lon="-1.32952">
        <ele>697.15</ele>
        <time>2026-08-29T06:57:27Z</time>
      </trkpt>
      <trkpt lat="43.14058" lon="-1.32947">
        <ele>697.12</ele>
        <time>2026-08-29T06:57:33Z</time>
      </trkpt>
      <trkpt lat="43.14053" lon="-1.32931">
        <ele>697.6</ele>
        <time>2026-08-29T06:57:44Z</time>
      </trkpt>
      <trkpt lat="43.14053" lon="-1.32919">
        <ele>697.91</ele>
        <time>2026-08-29T06:57:53Z</time>
      </trkpt>
      <trkpt lat="43.14054" lon="-1.32901">
        <ele>698.61</ele>
        <time>2026-08-29T06:58:08Z</time>
      </trkpt>
      <trkpt lat="43.14058" lon="-1.32884">
        <ele>699.06</ele>
        <time>2026-08-29T06:58:20Z</time>
      </trkpt>
      <trkpt lat="43.14064" lon="-1.3286">
        <ele>699.04</ele>
        <time>2026-08-29T06:58:39Z</time>
      </trkpt>
      <trkpt lat="43.14065" lon="-1.32857">
        <ele>698.94</ele>
        <time>2026-08-29T06:58:41Z</time>
      </trkpt>
      <trkpt lat="43.14069" lon="-1.32836">
        <ele>698.81</ele>
        <time>2026-08-29T06:58:53Z</time>
      </trkpt>
      <trkpt lat="43.14076" lon="-1.32814">
        <ele>698.86</ele>
        <time>2026-08-29T06:59:08Z</time>
      </trkpt>
      <trkpt lat="43.14082" lon="-1.32784">
        <ele>699.03</ele>
        <time>2026-08-29T06:59:29Z</time>
      </trkpt>
      <trkpt lat="43.1409" lon="-1.32752">
        <ele>699.07</ele>
        <time>2026-08-29T06:59:52Z</time>
      </trkpt>
      <trkpt lat="43.14095" lon="-1.32729">
        <ele>699.95</ele>
        <time>2026-08-29T07:00:07Z</time>
      </trkpt>
      <trkpt lat="43.14094" lon="-1.32717">
        <ele>700.66</ele>
        <time>2026-08-29T07:00:18Z</time>
      </trkpt>
      <trkpt lat="43.14087" lon="-1.32689">
        <ele>700.44</ele>
        <time>2026-08-29T07:00:43Z</time>
      </trkpt>
      <trkpt lat="43.14074" lon="-1.32679">
        <ele>700.11</ele>
        <time>2026-08-29T07:00:59Z</time>
      </trkpt>
      <trkpt lat="43.14056" lon="-1.32679">
        <ele>699.62</ele>
        <time>2026-08-29T07:01:18Z</time>
      </trkpt>
      <trkpt lat="43.14033" lon="-1.32683">
        <ele>698.76</ele>
        <time>2026-08-29T07:01:41Z</time>
      </trkpt>
      <trkpt lat="43.14006" lon="-1.32689">
        <ele>697.62</ele>
        <time>2026-08-29T07:02:07Z</time>
      </trkpt>
      <trkpt lat="43.13983" lon="-1.32692">
        <ele>696.3</ele>
        <time>2026-08-29T07:02:31Z</time>
      </trkpt>
      <trkpt lat="43.13967" lon="-1.327">
        <ele>695.27</ele>
        <time>2026-08-29T07:02:47Z</time>
      </trkpt>
      <trkpt lat="43.13957" lon="-1.32704">
        <ele>694.78</ele>
        <time>2026-08-29T07:02:58Z</time>
      </trkpt>
      <trkpt lat="43.13943" lon="-1.3271">
        <ele>694.93</ele>
        <time>2026-08-29T07:03:12Z</time>
      </trkpt>
      <trkpt lat="43.1394" lon="-1.32711">
        <ele>694.99</ele>
        <time>2026-08-29T07:03:15Z</time>
      </trkpt>
      <trkpt lat="43.13938" lon="-1.32711">
        <ele>695.05</ele>
        <time>2026-08-29T07:03:17Z</time>
      </trkpt>
      <trkpt lat="43.13926" lon="-1.32711">
        <ele>695.32</ele>
        <time>2026-08-29T07:03:30Z</time>
      </trkpt>
      <trkpt lat="43.13912" lon="-1.32712">
        <ele>695.46</ele>
        <time>2026-08-29T07:03:40Z</time>
      </trkpt>
      <trkpt lat="43.139" lon="-1.32708">
        <ele>695.34</ele>
        <time>2026-08-29T07:03:49Z</time>
      </trkpt>
      <trkpt lat="43.13892" lon="-1.32688">
        <ele>695.77</ele>
        <time>2026-08-29T07:04:05Z</time>
      </trkpt>
      <trkpt lat="43.13892" lon="-1.32685">
        <ele>695.87</ele>
        <time>2026-08-29T07:04:07Z</time>
      </trkpt>
      <trkpt lat="43.1389" lon="-1.32671">
        <ele>696.25</ele>
        <time>2026-08-29T07:04:20Z</time>
      </trkpt>
      <trkpt lat="43.13882" lon="-1.32659">
        <ele>696.08</ele>
        <time>2026-08-29T07:04:37Z</time>
      </trkpt>
      <trkpt lat="43.13879" lon="-1.32655">
        <ele>696.63</ele>
        <time>2026-08-29T07:04:40Z</time>
      </trkpt>
      <trkpt lat="43.1387" lon="-1.32637">
        <ele>697.59</ele>
        <time>2026-08-29T07:04:53Z</time>
      </trkpt>
      <trkpt lat="43.1386" lon="-1.32626">
        <ele>698.53</ele>
        <time>2026-08-29T07:05:08Z</time>
      </trkpt>
      <trkpt lat="43.13857" lon="-1.32611">
        <ele>699.19</ele>
        <time>2026-08-29T07:05:20Z</time>
      </trkpt>
      <trkpt lat="43.13845" lon="-1.32598">
        <ele>699.73</ele>
        <time>2026-08-29T07:05:31Z</time>
      </trkpt>
      <trkpt lat="43.13839" lon="-1.32583">
        <ele>700.24</ele>
        <time>2026-08-29T07:05:44Z</time>
      </trkpt>
      <trkpt lat="43.13836" lon="-1.32565">
        <ele>701.02</ele>
        <time>2026-08-29T07:06:00Z</time>
      </trkpt>
      <trkpt lat="43.1383" lon="-1.32548">
        <ele>701.61</ele>
        <time>2026-08-29T07:06:14Z</time>
      </trkpt>
      <trkpt lat="43.13818" lon="-1.32537">
        <ele>702.85</ele>
        <time>2026-08-29T07:06:29Z</time>
      </trkpt>
      <trkpt lat="43.13809" lon="-1.32533">
        <ele>703.51</ele>
        <time>2026-08-29T07:06:39Z</time>
      </trkpt>
      <trkpt lat="43.13806" lon="-1.32531">
        <ele>703.43</ele>
        <time>2026-08-29T07:06:43Z</time>
      </trkpt>
      <trkpt lat="43.13794" lon="-1.32536">
        <ele>704.18</ele>
        <time>2026-08-29T07:06:58Z</time>
      </trkpt>
      <trkpt lat="43.13784" lon="-1.32551">
        <ele>705.35</ele>
        <time>2026-08-29T07:07:10Z</time>
      </trkpt>
      <trkpt lat="43.13774" lon="-1.32574">
        <ele>706.57</ele>
        <time>2026-08-29T07:07:33Z</time>
      </trkpt>
      <trkpt lat="43.13764" lon="-1.3259">
        <ele>707.28</ele>
        <time>2026-08-29T07:07:46Z</time>
      </trkpt>
      <trkpt lat="43.13746" lon="-1.32613">
        <ele>709.02</ele>
        <time>2026-08-29T07:08:11Z</time>
      </trkpt>
      <trkpt lat="43.13737" lon="-1.32627">
        <ele>709.23</ele>
        <time>2026-08-29T07:08:26Z</time>
      </trkpt>
      <trkpt lat="43.13728" lon="-1.32644">
        <ele>710.27</ele>
        <time>2026-08-29T07:08:44Z</time>
      </trkpt>
      <trkpt lat="43.1372" lon="-1.32658">
        <ele>711.61</ele>
        <time>2026-08-29T07:08:59Z</time>
      </trkpt>
      <trkpt lat="43.13714" lon="-1.32673">
        <ele>712.44</ele>
        <time>2026-08-29T07:09:12Z</time>
      </trkpt>
      <trkpt lat="43.13713" lon="-1.32696">
        <ele>713.27</ele>
        <time>2026-08-29T07:09:29Z</time>
      </trkpt>
      <trkpt lat="43.13712" lon="-1.32701">
        <ele>713.59</ele>
        <time>2026-08-29T07:09:33Z</time>
      </trkpt>
      <trkpt lat="43.13711" lon="-1.32705">
        <ele>713.76</ele>
        <time>2026-08-29T07:09:36Z</time>
      </trkpt>
      <trkpt lat="43.1371" lon="-1.32709">
        <ele>714.01</ele>
        <time>2026-08-29T07:09:39Z</time>
      </trkpt>
      <trkpt lat="43.13706" lon="-1.32717">
        <ele>714.18</ele>
        <time>2026-08-29T07:09:45Z</time>
      </trkpt>
      <trkpt lat="43.13697" lon="-1.32722">
        <ele>714.72</ele>
        <time>2026-08-29T07:09:54Z</time>
      </trkpt>
      <trkpt lat="43.13684" lon="-1.32722">
        <ele>715.52</ele>
        <time>2026-08-29T07:10:07Z</time>
      </trkpt>
      <trkpt lat="43.13677" lon="-1.32722">
        <ele>715.68</ele>
        <time>2026-08-29T07:10:12Z</time>
      </trkpt>
      <trkpt lat="43.13668" lon="-1.32722">
        <ele>716.33</ele>
        <time>2026-08-29T07:10:21Z</time>
      </trkpt>
      <trkpt lat="43.13655" lon="-1.32727">
        <ele>717.33</ele>
        <time>2026-08-29T07:10:34Z</time>
      </trkpt>
      <trkpt lat="43.13649" lon="-1.32732">
        <ele>718.32</ele>
        <time>2026-08-29T07:10:43Z</time>
      </trkpt>
      <trkpt lat="43.13641" lon="-1.32735">
        <ele>719.31</ele>
        <time>2026-08-29T07:10:51Z</time>
      </trkpt>
      <trkpt lat="43.13632" lon="-1.3274">
        <ele>719.84</ele>
        <time>2026-08-29T07:11:00Z</time>
      </trkpt>
      <trkpt lat="43.13625" lon="-1.32746">
        <ele>720.14</ele>
        <time>2026-08-29T07:11:08Z</time>
      </trkpt>
      <trkpt lat="43.13612" lon="-1.3275">
        <ele>720.89</ele>
        <time>2026-08-29T07:11:22Z</time>
      </trkpt>
      <trkpt lat="43.1359" lon="-1.32743">
        <ele>721.36</ele>
        <time>2026-08-29T07:11:41Z</time>
      </trkpt>
      <trkpt lat="43.13586" lon="-1.32742">
        <ele>721.63</ele>
        <time>2026-08-29T07:11:45Z</time>
      </trkpt>
      <trkpt lat="43.13573" lon="-1.32724">
        <ele>721.28</ele>
        <time>2026-08-29T07:12:05Z</time>
      </trkpt>
      <trkpt lat="43.13571" lon="-1.32712">
        <ele>721.15</ele>
        <time>2026-08-29T07:12:14Z</time>
      </trkpt>
      <trkpt lat="43.13571" lon="-1.32705">
        <ele>721.38</ele>
        <time>2026-08-29T07:12:20Z</time>
      </trkpt>
      <trkpt lat="43.13571" lon="-1.32698">
        <ele>721.63</ele>
        <time>2026-08-29T07:12:24Z</time>
      </trkpt>
      <trkpt lat="43.13572" lon="-1.32695">
        <ele>721.48</ele>
        <time>2026-08-29T07:12:26Z</time>
      </trkpt>
      <trkpt lat="43.13574" lon="-1.32682">
        <ele>722.06</ele>
        <time>2026-08-29T07:12:34Z</time>
      </trkpt>
      <trkpt lat="43.13574" lon="-1.32679">
        <ele>722.19</ele>
        <time>2026-08-29T07:12:36Z</time>
      </trkpt>
      <trkpt lat="43.13573" lon="-1.32674">
        <ele>722.14</ele>
        <time>2026-08-29T07:12:39Z</time>
      </trkpt>
      <trkpt lat="43.13572" lon="-1.32657">
        <ele>723.31</ele>
        <time>2026-08-29T07:12:51Z</time>
      </trkpt>
      <trkpt lat="43.13574" lon="-1.32638">
        <ele>723.72</ele>
        <time>2026-08-29T07:13:04Z</time>
      </trkpt>
      <trkpt lat="43.1357" lon="-1.32623">
        <ele>724.03</ele>
        <time>2026-08-29T07:13:18Z</time>
      </trkpt>
      <trkpt lat="43.13567" lon="-1.32603">
        <ele>725.18</ele>
        <time>2026-08-29T07:13:33Z</time>
      </trkpt>
      <trkpt lat="43.13564" lon="-1.32581">
        <ele>725.82</ele>
        <time>2026-08-29T07:13:48Z</time>
      </trkpt>
      <trkpt lat="43.13563" lon="-1.32567">
        <ele>726.19</ele>
        <time>2026-08-29T07:13:57Z</time>
      </trkpt>
      <trkpt lat="43.13558" lon="-1.32542">
        <ele>727.93</ele>
        <time>2026-08-29T07:14:16Z</time>
      </trkpt>
      <trkpt lat="43.13558" lon="-1.32511">
        <ele>729.46</ele>
        <time>2026-08-29T07:14:40Z</time>
      </trkpt>
      <trkpt lat="43.13552" lon="-1.32489">
        <ele>730.71</ele>
        <time>2026-08-29T07:14:59Z</time>
      </trkpt>
      <trkpt lat="43.13552" lon="-1.32468">
        <ele>731.63</ele>
        <time>2026-08-29T07:15:15Z</time>
      </trkpt>
      <trkpt lat="43.13552" lon="-1.3244">
        <ele>733.45</ele>
        <time>2026-08-29T07:15:34Z</time>
      </trkpt>
      <trkpt lat="43.13545" lon="-1.3241">
        <ele>734.7</ele>
        <time>2026-08-29T07:15:57Z</time>
      </trkpt>
      <trkpt lat="43.13538" lon="-1.32392">
        <ele>735.3</ele>
        <time>2026-08-29T07:16:13Z</time>
      </trkpt>
      <trkpt lat="43.1352" lon="-1.32383">
        <ele>736.21</ele>
        <time>2026-08-29T07:16:30Z</time>
      </trkpt>
      <trkpt lat="43.13513" lon="-1.3238">
        <ele>737.3</ele>
        <time>2026-08-29T07:16:35Z</time>
      </trkpt>
      <trkpt lat="43.13499" lon="-1.32368">
        <ele>737.55</ele>
        <time>2026-08-29T07:16:52Z</time>
      </trkpt>
      <trkpt lat="43.13486" lon="-1.32346">
        <ele>739.69</ele>
        <time>2026-08-29T07:17:14Z</time>
      </trkpt>
      <trkpt lat="43.13477" lon="-1.32322">
        <ele>740.68</ele>
        <time>2026-08-29T07:17:36Z</time>
      </trkpt>
      <trkpt lat="43.13469" lon="-1.32306">
        <ele>741.77</ele>
        <time>2026-08-29T07:17:53Z</time>
      </trkpt>
      <trkpt lat="43.13459" lon="-1.32279">
        <ele>743.24</ele>
        <time>2026-08-29T07:18:12Z</time>
      </trkpt>
      <trkpt lat="43.1346" lon="-1.32259">
        <ele>745.56</ele>
        <time>2026-08-29T07:18:27Z</time>
      </trkpt>
      <trkpt lat="43.13454" lon="-1.32232">
        <ele>746.91</ele>
        <time>2026-08-29T07:18:51Z</time>
      </trkpt>
      <trkpt lat="43.13432" lon="-1.32206">
        <ele>747.59</ele>
        <time>2026-08-29T07:19:16Z</time>
      </trkpt>
      <trkpt lat="43.1343" lon="-1.32196">
        <ele>747.9</ele>
        <time>2026-08-29T07:19:25Z</time>
      </trkpt>
      <trkpt lat="43.13429" lon="-1.32193">
        <ele>747.97</ele>
        <time>2026-08-29T07:19:28Z</time>
      </trkpt>
      <trkpt lat="43.13427" lon="-1.32187">
        <ele>748.18</ele>
        <time>2026-08-29T07:19:34Z</time>
      </trkpt>
      <trkpt lat="43.13424" lon="-1.32175">
        <ele>749.05</ele>
        <time>2026-08-29T07:19:42Z</time>
      </trkpt>
      <trkpt lat="43.13428" lon="-1.32162">
        <ele>749.13</ele>
        <time>2026-08-29T07:19:49Z</time>
      </trkpt>
      <trkpt lat="43.13429" lon="-1.32159">
        <ele>749.55</ele>
        <time>2026-08-29T07:19:51Z</time>
      </trkpt>
      <trkpt lat="43.13433" lon="-1.32142">
        <ele>751</ele>
        <time>2026-08-29T07:20:01Z</time>
      </trkpt>
      <trkpt lat="43.13435" lon="-1.32135">
        <ele>751.35</ele>
        <time>2026-08-29T07:20:05Z</time>
      </trkpt>
      <trkpt lat="43.13436" lon="-1.32116">
        <ele>751.54</ele>
        <time>2026-08-29T07:20:19Z</time>
      </trkpt>
      <trkpt lat="43.13435" lon="-1.32096">
        <ele>752.08</ele>
        <time>2026-08-29T07:20:35Z</time>
      </trkpt>
      <trkpt lat="43.13436" lon="-1.32081">
        <ele>753.7</ele>
        <time>2026-08-29T07:20:47Z</time>
      </trkpt>
      <trkpt lat="43.13441" lon="-1.3205">
        <ele>755.32</ele>
        <time>2026-08-29T07:21:10Z</time>
      </trkpt>
      <trkpt lat="43.13444" lon="-1.32031">
        <ele>756.27</ele>
        <time>2026-08-29T07:21:29Z</time>
      </trkpt>
      <trkpt lat="43.13446" lon="-1.32012">
        <ele>758.69</ele>
        <time>2026-08-29T07:21:50Z</time>
      </trkpt>
      <trkpt lat="43.13448" lon="-1.31991">
        <ele>759.16</ele>
        <time>2026-08-29T07:22:06Z</time>
      </trkpt>
      <trkpt lat="43.13448" lon="-1.31971">
        <ele>759.62</ele>
        <time>2026-08-29T07:22:22Z</time>
      </trkpt>
      <trkpt lat="43.13451" lon="-1.31969">
        <ele>759.9</ele>
        <time>2026-08-29T07:22:43Z</time>
      </trkpt>
      <trkpt lat="43.13451" lon="-1.31968">
        <ele>760.62</ele>
        <time>2026-08-29T07:23:10Z</time>
      </trkpt>
      <trkpt lat="43.13451" lon="-1.31965">
        <ele>762</ele>
        <time>2026-08-29T07:23:45Z</time>
      </trkpt>
      <trkpt lat="43.13452" lon="-1.31963">
        <ele>761.81</ele>
        <time>2026-08-29T07:24:09Z</time>
      </trkpt>
      <trkpt lat="43.13446" lon="-1.31936">
        <ele>762.89</ele>
        <time>2026-08-29T07:24:32Z</time>
      </trkpt>
      <trkpt lat="43.13444" lon="-1.31928">
        <ele>766.33</ele>
        <time>2026-08-29T07:24:40Z</time>
      </trkpt>
      <trkpt lat="43.13444" lon="-1.31925">
        <ele>767.29</ele>
        <time>2026-08-29T07:24:42Z</time>
      </trkpt>
      <trkpt lat="43.13441" lon="-1.31904">
        <ele>765.16</ele>
        <time>2026-08-29T07:24:58Z</time>
      </trkpt>
      <trkpt lat="43.13439" lon="-1.31878">
        <ele>768.19</ele>
        <time>2026-08-29T07:25:18Z</time>
      </trkpt>
      <trkpt lat="43.13432" lon="-1.31852">
        <ele>769.48</ele>
        <time>2026-08-29T07:25:41Z</time>
      </trkpt>
      <trkpt lat="43.13427" lon="-1.3183">
        <ele>772.52</ele>
        <time>2026-08-29T07:25:59Z</time>
      </trkpt>
      <trkpt lat="43.13421" lon="-1.31804">
        <ele>775.58</ele>
        <time>2026-08-29T07:26:21Z</time>
      </trkpt>
      <trkpt lat="43.1342" lon="-1.318">
        <ele>775.98</ele>
        <time>2026-08-29T07:26:24Z</time>
      </trkpt>
      <trkpt lat="43.13414" lon="-1.31777">
        <ele>778.75</ele>
        <time>2026-08-29T07:26:46Z</time>
      </trkpt>
      <trkpt lat="43.13407" lon="-1.31761">
        <ele>779.65</ele>
        <time>2026-08-29T07:27:03Z</time>
      </trkpt>
      <trkpt lat="43.13414" lon="-1.31734">
        <ele>781.11</ele>
        <time>2026-08-29T07:27:24Z</time>
      </trkpt>
      <trkpt lat="43.13416" lon="-1.31731">
        <ele>781.18</ele>
        <time>2026-08-29T07:27:26Z</time>
      </trkpt>
      <trkpt lat="43.13429" lon="-1.31709">
        <ele>782.65</ele>
        <time>2026-08-29T07:27:48Z</time>
      </trkpt>
      <trkpt lat="43.13435" lon="-1.31699">
        <ele>782.57</ele>
        <time>2026-08-29T07:28:03Z</time>
      </trkpt>
      <trkpt lat="43.13439" lon="-1.31691">
        <ele>782.55</ele>
        <time>2026-08-29T07:28:21Z</time>
      </trkpt>
      <trkpt lat="43.13441" lon="-1.31681">
        <ele>783.81</ele>
        <time>2026-08-29T07:28:42Z</time>
      </trkpt>
      <trkpt lat="43.13445" lon="-1.31662">
        <ele>785.47</ele>
        <time>2026-08-29T07:28:57Z</time>
      </trkpt>
      <trkpt lat="43.1345" lon="-1.31651">
        <ele>786.18</ele>
        <time>2026-08-29T07:29:06Z</time>
      </trkpt>
      <trkpt lat="43.13454" lon="-1.31625">
        <ele>788.61</ele>
        <time>2026-08-29T07:29:26Z</time>
      </trkpt>
      <trkpt lat="43.13456" lon="-1.3161">
        <ele>789.42</ele>
        <time>2026-08-29T07:29:39Z</time>
      </trkpt>
      <trkpt lat="43.1346" lon="-1.31587">
        <ele>791.87</ele>
        <time>2026-08-29T07:29:59Z</time>
      </trkpt>
      <trkpt lat="43.13465" lon="-1.31571">
        <ele>792.72</ele>
        <time>2026-08-29T07:30:18Z</time>
      </trkpt>
      <trkpt lat="43.13472" lon="-1.31555">
        <ele>794.82</ele>
        <time>2026-08-29T07:30:38Z</time>
      </trkpt>
      <trkpt lat="43.13474" lon="-1.31556">
        <ele>794.77</ele>
        <time>2026-08-29T07:31:03Z</time>
      </trkpt>
      <trkpt lat="43.13477" lon="-1.3155">
        <ele>795.67</ele>
        <time>2026-08-29T07:31:19Z</time>
      </trkpt>
      <trkpt lat="43.13479" lon="-1.31544">
        <ele>795.91</ele>
        <time>2026-08-29T07:31:25Z</time>
      </trkpt>
      <trkpt lat="43.13481" lon="-1.31542">
        <ele>796.97</ele>
        <time>2026-08-29T07:31:27Z</time>
      </trkpt>
      <trkpt lat="43.13494" lon="-1.31516">
        <ele>797.62</ele>
        <time>2026-08-29T07:31:50Z</time>
      </trkpt>
      <trkpt lat="43.13498" lon="-1.31504">
        <ele>799.39</ele>
        <time>2026-08-29T07:32:09Z</time>
      </trkpt>
      <trkpt lat="43.13505" lon="-1.31497">
        <ele>800.27</ele>
        <time>2026-08-29T07:32:29Z</time>
      </trkpt>
      <trkpt lat="43.13516" lon="-1.31481">
        <ele>802.01</ele>
        <time>2026-08-29T07:32:49Z</time>
      </trkpt>
      <trkpt lat="43.13527" lon="-1.31467">
        <ele>803.12</ele>
        <time>2026-08-29T07:33:06Z</time>
      </trkpt>
      <trkpt lat="43.13541" lon="-1.31447">
        <ele>806.01</ele>
        <time>2026-08-29T07:33:26Z</time>
      </trkpt>
      <trkpt lat="43.13561" lon="-1.31428">
        <ele>807.9</ele>
        <time>2026-08-29T07:33:47Z</time>
      </trkpt>
      <trkpt lat="43.13574" lon="-1.31422">
        <ele>807.83</ele>
        <time>2026-08-29T07:34:06Z</time>
      </trkpt>
      <trkpt lat="43.1359" lon="-1.31411">
        <ele>809.39</ele>
        <time>2026-08-29T07:34:24Z</time>
      </trkpt>
      <trkpt lat="43.13605" lon="-1.31408">
        <ele>811.8</ele>
        <time>2026-08-29T07:34:42Z</time>
      </trkpt>
      <trkpt lat="43.13618" lon="-1.31406">
        <ele>813.23</ele>
        <time>2026-08-29T07:34:58Z</time>
      </trkpt>
      <trkpt lat="43.1363" lon="-1.31405">
        <ele>813.02</ele>
        <time>2026-08-29T07:35:17Z</time>
      </trkpt>
      <trkpt lat="43.13649" lon="-1.31405">
        <ele>811.93</ele>
        <time>2026-08-29T07:35:38Z</time>
      </trkpt>
      <trkpt lat="43.13658" lon="-1.31403">
        <ele>812.39</ele>
        <time>2026-08-29T07:35:47Z</time>
      </trkpt>
      <trkpt lat="43.1368" lon="-1.31392">
        <ele>813.58</ele>
        <time>2026-08-29T07:36:09Z</time>
      </trkpt>
      <trkpt lat="43.13698" lon="-1.31384">
        <ele>816.11</ele>
        <time>2026-08-29T07:36:31Z</time>
      </trkpt>
      <trkpt lat="43.13704" lon="-1.31381">
        <ele>816.64</ele>
        <time>2026-08-29T07:36:37Z</time>
      </trkpt>
      <trkpt lat="43.13718" lon="-1.31373">
        <ele>817.36</ele>
        <time>2026-08-29T07:36:51Z</time>
      </trkpt>
      <trkpt lat="43.13732" lon="-1.31368">
        <ele>818.96</ele>
        <time>2026-08-29T07:37:07Z</time>
      </trkpt>
      <trkpt lat="43.13746" lon="-1.31363">
        <ele>820.72</ele>
        <time>2026-08-29T07:37:24Z</time>
      </trkpt>
      <trkpt lat="43.13761" lon="-1.3136">
        <ele>822.32</ele>
        <time>2026-08-29T07:37:43Z</time>
      </trkpt>
      <trkpt lat="43.13778" lon="-1.31359">
        <ele>824.19</ele>
        <time>2026-08-29T07:38:01Z</time>
      </trkpt>
      <trkpt lat="43.13783" lon="-1.3136">
        <ele>824.98</ele>
        <time>2026-08-29T07:38:20Z</time>
      </trkpt>
      <trkpt lat="43.13806" lon="-1.31357">
        <ele>827.12</ele>
        <time>2026-08-29T07:38:43Z</time>
      </trkpt>
      <trkpt lat="43.13822" lon="-1.31354">
        <ele>828.69</ele>
        <time>2026-08-29T07:39:02Z</time>
      </trkpt>
      <trkpt lat="43.13834" lon="-1.31351">
        <ele>829.47</ele>
        <time>2026-08-29T07:39:21Z</time>
      </trkpt>
      <trkpt lat="43.13842" lon="-1.3135">
        <ele>830.4</ele>
        <time>2026-08-29T07:39:31Z</time>
      </trkpt>
      <trkpt lat="43.13848" lon="-1.31347">
        <ele>830.39</ele>
        <time>2026-08-29T07:39:36Z</time>
      </trkpt>
      <trkpt lat="43.13855" lon="-1.31345">
        <ele>831.34</ele>
        <time>2026-08-29T07:39:49Z</time>
      </trkpt>
      <trkpt lat="43.13869" lon="-1.31334">
        <ele>832.9</ele>
        <time>2026-08-29T07:40:07Z</time>
      </trkpt>
      <trkpt lat="43.13886" lon="-1.31324">
        <ele>833.21</ele>
        <time>2026-08-29T07:40:28Z</time>
      </trkpt>
      <trkpt lat="43.13895" lon="-1.31312">
        <ele>834.54</ele>
        <time>2026-08-29T07:40:47Z</time>
      </trkpt>
      <trkpt lat="43.13911" lon="-1.31305">
        <ele>834.78</ele>
        <time>2026-08-29T07:41:02Z</time>
      </trkpt>
      <trkpt lat="43.13924" lon="-1.31301">
        <ele>834.87</ele>
        <time>2026-08-29T07:41:14Z</time>
      </trkpt>
      <trkpt lat="43.13925" lon="-1.313">
        <ele>835.05</ele>
        <time>2026-08-29T07:41:15Z</time>
      </trkpt>
      <trkpt lat="43.13935" lon="-1.31297">
        <ele>835.61</ele>
        <time>2026-08-29T07:41:26Z</time>
      </trkpt>
      <trkpt lat="43.13937" lon="-1.31296">
        <ele>835.65</ele>
        <time>2026-08-29T07:41:29Z</time>
      </trkpt>
      <trkpt lat="43.13958" lon="-1.31289">
        <ele>836.44</ele>
        <time>2026-08-29T07:41:49Z</time>
      </trkpt>
      <trkpt lat="43.13967" lon="-1.31285">
        <ele>836.22</ele>
        <time>2026-08-29T07:42:01Z</time>
      </trkpt>
      <trkpt lat="43.13983" lon="-1.31274">
        <ele>836.63</ele>
        <time>2026-08-29T07:42:21Z</time>
      </trkpt>
      <trkpt lat="43.13989" lon="-1.31261">
        <ele>836.7</ele>
        <time>2026-08-29T07:42:33Z</time>
      </trkpt>
      <trkpt lat="43.13991" lon="-1.31236">
        <ele>839.51</ele>
        <time>2026-08-29T07:42:54Z</time>
      </trkpt>
      <trkpt lat="43.13993" lon="-1.31227">
        <ele>840.42</ele>
        <time>2026-08-29T07:43:11Z</time>
      </trkpt>
      <trkpt lat="43.13999" lon="-1.31215">
        <ele>839.42</ele>
        <time>2026-08-29T07:43:37Z</time>
      </trkpt>
      <trkpt lat="43.14009" lon="-1.31208">
        <ele>839.06</ele>
        <time>2026-08-29T07:43:52Z</time>
      </trkpt>
      <trkpt lat="43.14017" lon="-1.312">
        <ele>838.99</ele>
        <time>2026-08-29T07:44:04Z</time>
      </trkpt>
      <trkpt lat="43.14028" lon="-1.31191">
        <ele>839.37</ele>
        <time>2026-08-29T07:44:18Z</time>
      </trkpt>
      <trkpt lat="43.14042" lon="-1.31182">
        <ele>839.42</ele>
        <time>2026-08-29T07:44:40Z</time>
      </trkpt>
      <trkpt lat="43.14048" lon="-1.31184">
        <ele>839.06</ele>
        <time>2026-08-29T07:44:47Z</time>
      </trkpt>
      <trkpt lat="43.14055" lon="-1.31182">
        <ele>839.06</ele>
        <time>2026-08-29T07:44:57Z</time>
      </trkpt>
      <trkpt lat="43.1407" lon="-1.31177">
        <ele>839.86</ele>
        <time>2026-08-29T07:45:18Z</time>
      </trkpt>
      <trkpt lat="43.14083" lon="-1.31184">
        <ele>840.51</ele>
        <time>2026-08-29T07:45:39Z</time>
      </trkpt>
      <trkpt lat="43.14091" lon="-1.31192">
        <ele>840.09</ele>
        <time>2026-08-29T07:46:01Z</time>
      </trkpt>
      <trkpt lat="43.141" lon="-1.31197">
        <ele>839.69</ele>
        <time>2026-08-29T07:46:22Z</time>
      </trkpt>
      <trkpt lat="43.1411" lon="-1.31206">
        <ele>838.56</ele>
        <time>2026-08-29T07:46:41Z</time>
      </trkpt>
      <trkpt lat="43.14129" lon="-1.3121">
        <ele>839.55</ele>
        <time>2026-08-29T07:47:03Z</time>
      </trkpt>
      <trkpt lat="43.14145" lon="-1.31216">
        <ele>839.16</ele>
        <time>2026-08-29T07:47:27Z</time>
      </trkpt>
      <trkpt lat="43.14163" lon="-1.31218">
        <ele>838.99</ele>
        <time>2026-08-29T07:47:48Z</time>
      </trkpt>
      <trkpt lat="43.14171" lon="-1.31217">
        <ele>840.07</ele>
        <time>2026-08-29T07:48:06Z</time>
      </trkpt>
      <trkpt lat="43.14181" lon="-1.31215">
        <ele>840.16</ele>
        <time>2026-08-29T07:48:21Z</time>
      </trkpt>
      <trkpt lat="43.14198" lon="-1.31215">
        <ele>840.55</ele>
        <time>2026-08-29T07:48:42Z</time>
      </trkpt>
      <trkpt lat="43.14204" lon="-1.31218">
        <ele>838.96</ele>
        <time>2026-08-29T07:49:02Z</time>
      </trkpt>
      <trkpt lat="43.14221" lon="-1.31228">
        <ele>838.97</ele>
        <time>2026-08-29T07:49:26Z</time>
      </trkpt>
      <trkpt lat="43.14231" lon="-1.31234">
        <ele>840</ele>
        <time>2026-08-29T07:49:49Z</time>
      </trkpt>
      <trkpt lat="43.14235" lon="-1.31234">
        <ele>840.29</ele>
        <time>2026-08-29T07:49:52Z</time>
      </trkpt>
      <trkpt lat="43.14249" lon="-1.31246">
        <ele>839.89</ele>
        <time>2026-08-29T07:50:13Z</time>
      </trkpt>
      <trkpt lat="43.14258" lon="-1.3126">
        <ele>839.87</ele>
        <time>2026-08-29T07:50:39Z</time>
      </trkpt>
      <trkpt lat="43.14269" lon="-1.31272">
        <ele>838.88</ele>
        <time>2026-08-29T07:50:58Z</time>
      </trkpt>
      <trkpt lat="43.14284" lon="-1.31288">
        <ele>839.31</ele>
        <time>2026-08-29T07:51:21Z</time>
      </trkpt>
      <trkpt lat="43.14295" lon="-1.31297">
        <ele>840.08</ele>
        <time>2026-08-29T07:51:40Z</time>
      </trkpt>
      <trkpt lat="43.14311" lon="-1.31317">
        <ele>839.72</ele>
        <time>2026-08-29T07:52:03Z</time>
      </trkpt>
      <trkpt lat="43.14318" lon="-1.31325">
        <ele>840.68</ele>
        <time>2026-08-29T07:52:23Z</time>
      </trkpt>
      <trkpt lat="43.14332" lon="-1.31338">
        <ele>840.51</ele>
        <time>2026-08-29T07:52:43Z</time>
      </trkpt>
      <trkpt lat="43.14352" lon="-1.31354">
        <ele>840.13</ele>
        <time>2026-08-29T07:53:09Z</time>
      </trkpt>
      <trkpt lat="43.14367" lon="-1.31368">
        <ele>840.08</ele>
        <time>2026-08-29T07:53:31Z</time>
      </trkpt>
      <trkpt lat="43.1438" lon="-1.3138">
        <ele>839.85</ele>
        <time>2026-08-29T07:53:50Z</time>
      </trkpt>
      <trkpt lat="43.1439" lon="-1.31384">
        <ele>840.29</ele>
        <time>2026-08-29T07:54:02Z</time>
      </trkpt>
      <trkpt lat="43.14407" lon="-1.31396">
        <ele>840.19</ele>
        <time>2026-08-29T07:54:23Z</time>
      </trkpt>
      <trkpt lat="43.1442" lon="-1.31397">
        <ele>840.99</ele>
        <time>2026-08-29T07:54:42Z</time>
      </trkpt>
      <trkpt lat="43.14422" lon="-1.31401">
        <ele>841.94</ele>
        <time>2026-08-29T07:55:01Z</time>
      </trkpt>
      <trkpt lat="43.14425" lon="-1.31405">
        <ele>840.93</ele>
        <time>2026-08-29T07:55:22Z</time>
      </trkpt>
      <trkpt lat="43.14428" lon="-1.31404">
        <ele>841.34</ele>
        <time>2026-08-29T07:55:42Z</time>
      </trkpt>
      <trkpt lat="43.14425" lon="-1.31406">
        <ele>841.55</ele>
        <time>2026-08-29T07:56:02Z</time>
      </trkpt>
      <trkpt lat="43.14439" lon="-1.31413">
        <ele>841.26</ele>
        <time>2026-08-29T07:56:19Z</time>
      </trkpt>
      <trkpt lat="43.14442" lon="-1.31416">
        <ele>841.3</ele>
        <time>2026-08-29T07:56:40Z</time>
      </trkpt>
      <trkpt lat="43.14453" lon="-1.31418">
        <ele>841.46</ele>
        <time>2026-08-29T07:56:54Z</time>
      </trkpt>
      <trkpt lat="43.14468" lon="-1.31419">
        <ele>842.04</ele>
        <time>2026-08-29T07:57:09Z</time>
      </trkpt>
      <trkpt lat="43.14487" lon="-1.31421">
        <ele>841.69</ele>
        <time>2026-08-29T07:57:32Z</time>
      </trkpt>
      <trkpt lat="43.14505" lon="-1.31422">
        <ele>841.58</ele>
        <time>2026-08-29T07:57:53Z</time>
      </trkpt>
      <trkpt lat="43.1452" lon="-1.31427">
        <ele>841.83</ele>
        <time>2026-08-29T07:58:10Z</time>
      </trkpt>
      <trkpt lat="43.14529" lon="-1.31434">
        <ele>841.81</ele>
        <time>2026-08-29T07:58:22Z</time>
      </trkpt>
      <trkpt lat="43.14547" lon="-1.31445">
        <ele>842.71</ele>
        <time>2026-08-29T07:58:41Z</time>
      </trkpt>
      <trkpt lat="43.14549" lon="-1.31446">
        <ele>842.41</ele>
        <time>2026-08-29T07:58:43Z</time>
      </trkpt>
      <trkpt lat="43.14561" lon="-1.31454">
        <ele>840.78</ele>
        <time>2026-08-29T07:58:59Z</time>
      </trkpt>
      <trkpt lat="43.14579" lon="-1.31464">
        <ele>841.72</ele>
        <time>2026-08-29T07:59:22Z</time>
      </trkpt>
      <trkpt lat="43.14599" lon="-1.31474">
        <ele>842.05</ele>
        <time>2026-08-29T07:59:45Z</time>
      </trkpt>
      <trkpt lat="43.14604" lon="-1.31473">
        <ele>842.05</ele>
        <time>2026-08-29T07:59:52Z</time>
      </trkpt>
      <trkpt lat="43.1462" lon="-1.31474">
        <ele>843</ele>
        <time>2026-08-29T08:00:13Z</time>
      </trkpt>
      <trkpt lat="43.14632" lon="-1.31471">
        <ele>843.37</ele>
        <time>2026-08-29T08:00:28Z</time>
      </trkpt>
      <trkpt lat="43.14647" lon="-1.31467">
        <ele>843.88</ele>
        <time>2026-08-29T08:00:44Z</time>
      </trkpt>
      <trkpt lat="43.14659" lon="-1.31463">
        <ele>845.17</ele>
        <time>2026-08-29T08:01:00Z</time>
      </trkpt>
      <trkpt lat="43.14674" lon="-1.31458">
        <ele>846.07</ele>
        <time>2026-08-29T08:01:20Z</time>
      </trkpt>
      <trkpt lat="43.14689" lon="-1.31445">
        <ele>846.73</ele>
        <time>2026-08-29T08:01:37Z</time>
      </trkpt>
      <trkpt lat="43.14705" lon="-1.31434">
        <ele>846.99</ele>
        <time>2026-08-29T08:01:57Z</time>
      </trkpt>
      <trkpt lat="43.14711" lon="-1.31427">
        <ele>847.03</ele>
        <time>2026-08-29T08:02:15Z</time>
      </trkpt>
      <trkpt lat="43.14717" lon="-1.31422">
        <ele>846.39</ele>
        <time>2026-08-29T08:02:37Z</time>
      </trkpt>
      <trkpt lat="43.14726" lon="-1.31409">
        <ele>845.4</ele>
        <time>2026-08-29T08:02:58Z</time>
      </trkpt>
      <trkpt lat="43.1473" lon="-1.31404">
        <ele>845.53</ele>
        <time>2026-08-29T08:03:04Z</time>
      </trkpt>
      <trkpt lat="43.14733" lon="-1.31398">
        <ele>846.44</ele>
        <time>2026-08-29T08:03:22Z</time>
      </trkpt>
      <trkpt lat="43.1474" lon="-1.31388">
        <ele>844.97</ele>
        <time>2026-08-29T08:03:39Z</time>
      </trkpt>
      <trkpt lat="43.14742" lon="-1.31384">
        <ele>845.06</ele>
        <time>2026-08-29T08:03:44Z</time>
      </trkpt>
      <trkpt lat="43.14746" lon="-1.31377">
        <ele>845.29</ele>
        <time>2026-08-29T08:03:51Z</time>
      </trkpt>
      <trkpt lat="43.14763" lon="-1.31359">
        <ele>844.59</ele>
        <time>2026-08-29T08:04:16Z</time>
      </trkpt>
      <trkpt lat="43.14768" lon="-1.31353">
        <ele>845.05</ele>
        <time>2026-08-29T08:04:32Z</time>
      </trkpt>
      <trkpt lat="43.14771" lon="-1.31346">
        <ele>845.91</ele>
        <time>2026-08-29T08:04:40Z</time>
      </trkpt>
      <trkpt lat="43.14775" lon="-1.31333">
        <ele>848.43</ele>
        <time>2026-08-29T08:04:57Z</time>
      </trkpt>
      <trkpt lat="43.14779" lon="-1.31317">
        <ele>851.73</ele>
        <time>2026-08-29T08:05:18Z</time>
      </trkpt>
      <trkpt lat="43.14779" lon="-1.31316">
        <ele>852.13</ele>
        <time>2026-08-29T08:05:41Z</time>
      </trkpt>
      <trkpt lat="43.14779" lon="-1.31317">
        <ele>851.26</ele>
        <time>2026-08-29T08:06:06Z</time>
      </trkpt>
      <trkpt lat="43.14778" lon="-1.31317">
        <ele>851.74</ele>
        <time>2026-08-29T08:06:32Z</time>
      </trkpt>
      <trkpt lat="43.1478" lon="-1.31313">
        <ele>851.49</ele>
        <time>2026-08-29T08:06:54Z</time>
      </trkpt>
      <trkpt lat="43.1478" lon="-1.31312">
        <ele>851.47</ele>
        <time>2026-08-29T08:07:23Z</time>
      </trkpt>
      <trkpt lat="43.14781" lon="-1.31311">
        <ele>851.46</ele>
        <time>2026-08-29T08:07:54Z</time>
      </trkpt>
      <trkpt lat="43.1478" lon="-1.31313">
        <ele>851.71</ele>
        <time>2026-08-29T08:08:23Z</time>
      </trkpt>
      <trkpt lat="43.14779" lon="-1.31315">
        <ele>851.84</ele>
        <time>2026-08-29T08:08:53Z</time>
      </trkpt>
      <trkpt lat="43.14775" lon="-1.31321">
        <ele>851.33</ele>
        <time>2026-08-29T08:09:10Z</time>
      </trkpt>
      <trkpt lat="43.14772" lon="-1.31325">
        <ele>851.61</ele>
        <time>2026-08-29T08:09:24Z</time>
      </trkpt>
      <trkpt lat="43.14767" lon="-1.3133">
        <ele>853.13</ele>
        <time>2026-08-29T08:09:47Z</time>
      </trkpt>
      <trkpt lat="43.14759" lon="-1.31334">
        <ele>855.58</ele>
        <time>2026-08-29T08:10:04Z</time>
      </trkpt>
      <trkpt lat="43.14756" lon="-1.31334">
        <ele>856.33</ele>
        <time>2026-08-29T08:10:22Z</time>
      </trkpt>
      <trkpt lat="43.14755" lon="-1.31326">
        <ele>858.48</ele>
        <time>2026-08-29T08:10:42Z</time>
      </trkpt>
      <trkpt lat="43.14753" lon="-1.3132">
        <ele>861.55</ele>
        <time>2026-08-29T08:10:58Z</time>
      </trkpt>
      <trkpt lat="43.14754" lon="-1.3131">
        <ele>863.21</ele>
        <time>2026-08-29T08:11:19Z</time>
      </trkpt>
      <trkpt lat="43.14753" lon="-1.31307">
        <ele>864.21</ele>
        <time>2026-08-29T08:11:44Z</time>
      </trkpt>
      <trkpt lat="43.14748" lon="-1.31307">
        <ele>865.98</ele>
        <time>2026-08-29T08:12:02Z</time>
      </trkpt>
      <trkpt lat="43.14743" lon="-1.31315">
        <ele>868.16</ele>
        <time>2026-08-29T08:12:16Z</time>
      </trkpt>
      <trkpt lat="43.14736" lon="-1.31323">
        <ele>868.52</ele>
        <time>2026-08-29T08:12:34Z</time>
      </trkpt>
      <trkpt lat="43.1473" lon="-1.31331">
        <ele>869.51</ele>
        <time>2026-08-29T08:12:59Z</time>
      </trkpt>
      <trkpt lat="43.14726" lon="-1.31335">
        <ele>871.49</ele>
        <time>2026-08-29T08:13:15Z</time>
      </trkpt>
      <trkpt lat="43.1472" lon="-1.31334">
        <ele>873.82</ele>
        <time>2026-08-29T08:13:36Z</time>
      </trkpt>
      <trkpt lat="43.14713" lon="-1.31334">
        <ele>876.44</ele>
        <time>2026-08-29T08:13:53Z</time>
      </trkpt>
      <trkpt lat="43.14707" lon="-1.31332">
        <ele>879.39</ele>
        <time>2026-08-29T08:14:12Z</time>
      </trkpt>
      <trkpt lat="43.14702" lon="-1.31326">
        <ele>882.45</ele>
        <time>2026-08-29T08:14:32Z</time>
      </trkpt>
      <trkpt lat="43.14699" lon="-1.3132">
        <ele>884.92</ele>
        <time>2026-08-29T08:14:50Z</time>
      </trkpt>
      <trkpt lat="43.14695" lon="-1.31324">
        <ele>886.61</ele>
        <time>2026-08-29T08:15:08Z</time>
      </trkpt>
      <trkpt lat="43.1469" lon="-1.31331">
        <ele>889.06</ele>
        <time>2026-08-29T08:15:27Z</time>
      </trkpt>
      <trkpt lat="43.14691" lon="-1.31332">
        <ele>888.99</ele>
        <time>2026-08-29T08:15:55Z</time>
      </trkpt>
      <trkpt lat="43.14687" lon="-1.31328">
        <ele>890.49</ele>
        <time>2026-08-29T08:16:13Z</time>
      </trkpt>
      <trkpt lat="43.14683" lon="-1.31323">
        <ele>891.62</ele>
        <time>2026-08-29T08:16:35Z</time>
      </trkpt>
      <trkpt lat="43.14678" lon="-1.31317">
        <ele>893.35</ele>
        <time>2026-08-29T08:16:51Z</time>
      </trkpt>
      <trkpt lat="43.14681" lon="-1.31305">
        <ele>895.43</ele>
        <time>2026-08-29T08:17:08Z</time>
      </trkpt>
      <trkpt lat="43.14687" lon="-1.31293">
        <ele>897.22</ele>
        <time>2026-08-29T08:17:28Z</time>
      </trkpt>
      <trkpt lat="43.14691" lon="-1.31285">
        <ele>899.02</ele>
        <time>2026-08-29T08:17:44Z</time>
      </trkpt>
      <trkpt lat="43.14694" lon="-1.31277">
        <ele>900.91</ele>
        <time>2026-08-29T08:18:00Z</time>
      </trkpt>
      <trkpt lat="43.14693" lon="-1.31268">
        <ele>902.86</ele>
        <time>2026-08-29T08:18:16Z</time>
      </trkpt>
      <trkpt lat="43.14692" lon="-1.31263">
        <ele>904.19</ele>
        <time>2026-08-29T08:18:41Z</time>
      </trkpt>
      <trkpt lat="43.14684" lon="-1.31253">
        <ele>906.66</ele>
        <time>2026-08-29T08:19:03Z</time>
      </trkpt>
      <trkpt lat="43.14683" lon="-1.3125">
        <ele>907.01</ele>
        <time>2026-08-29T08:19:22Z</time>
      </trkpt>
      <trkpt lat="43.1468" lon="-1.31241">
        <ele>908.73</ele>
        <time>2026-08-29T08:19:39Z</time>
      </trkpt>
      <trkpt lat="43.14677" lon="-1.3123">
        <ele>911.29</ele>
        <time>2026-08-29T08:19:58Z</time>
      </trkpt>
      <trkpt lat="43.14673" lon="-1.31217">
        <ele>914.16</ele>
        <time>2026-08-29T08:20:19Z</time>
      </trkpt>
      <trkpt lat="43.14671" lon="-1.3121">
        <ele>917.18</ele>
        <time>2026-08-29T08:20:35Z</time>
      </trkpt>
      <trkpt lat="43.14669" lon="-1.31202">
        <ele>920.38</ele>
        <time>2026-08-29T08:20:53Z</time>
      </trkpt>
      <trkpt lat="43.14667" lon="-1.31189">
        <ele>923.09</ele>
        <time>2026-08-29T08:21:13Z</time>
      </trkpt>
      <trkpt lat="43.14664" lon="-1.3119">
        <ele>922.84</ele>
        <time>2026-08-29T08:21:35Z</time>
      </trkpt>
      <trkpt lat="43.14656" lon="-1.31187">
        <ele>925.9</ele>
        <time>2026-08-29T08:21:51Z</time>
      </trkpt>
      <trkpt lat="43.14648" lon="-1.31182">
        <ele>926.69</ele>
        <time>2026-08-29T08:22:07Z</time>
      </trkpt>
      <trkpt lat="43.14643" lon="-1.31175">
        <ele>928.22</ele>
        <time>2026-08-29T08:22:23Z</time>
      </trkpt>
      <trkpt lat="43.14637" lon="-1.31166">
        <ele>930.25</ele>
        <time>2026-08-29T08:22:40Z</time>
      </trkpt>
      <trkpt lat="43.14632" lon="-1.31164">
        <ele>932.58</ele>
        <time>2026-08-29T08:22:55Z</time>
      </trkpt>
      <trkpt lat="43.14632" lon="-1.31159">
        <ele>934.82</ele>
        <time>2026-08-29T08:23:15Z</time>
      </trkpt>
      <trkpt lat="43.1463" lon="-1.31149">
        <ele>935.94</ele>
        <time>2026-08-29T08:23:34Z</time>
      </trkpt>
      <trkpt lat="43.14629" lon="-1.31148">
        <ele>936.85</ele>
        <time>2026-08-29T08:24:01Z</time>
      </trkpt>
      <trkpt lat="43.14627" lon="-1.31132">
        <ele>939.84</ele>
        <time>2026-08-29T08:24:19Z</time>
      </trkpt>
      <trkpt lat="43.14623" lon="-1.3112">
        <ele>940.63</ele>
        <time>2026-08-29T08:24:35Z</time>
      </trkpt>
      <trkpt lat="43.1462" lon="-1.31109">
        <ele>943.63</ele>
        <time>2026-08-29T08:24:53Z</time>
      </trkpt>
      <trkpt lat="43.14619" lon="-1.31098">
        <ele>945.81</ele>
        <time>2026-08-29T08:25:11Z</time>
      </trkpt>
      <trkpt lat="43.14617" lon="-1.31089">
        <ele>947.96</ele>
        <time>2026-08-29T08:25:27Z</time>
      </trkpt>
      <trkpt lat="43.14619" lon="-1.31085">
        <ele>949.41</ele>
        <time>2026-08-29T08:25:34Z</time>
      </trkpt>
      <trkpt lat="43.14625" lon="-1.31081">
        <ele>951.92</ele>
        <time>2026-08-29T08:25:50Z</time>
      </trkpt>
      <trkpt lat="43.14625" lon="-1.31081">
        <ele>953.26</ele>
        <time>2026-08-29T08:25:55Z</time>
      </trkpt>
      <trkpt lat="43.14628" lon="-1.31076">
        <ele>952.79</ele>
        <time>2026-08-29T08:26:06Z</time>
      </trkpt>
      <trkpt lat="43.14633" lon="-1.31069">
        <ele>953.44</ele>
        <time>2026-08-29T08:26:19Z</time>
      </trkpt>
      <trkpt lat="43.14636" lon="-1.31059">
        <ele>956.6</ele>
        <time>2026-08-29T08:26:32Z</time>
      </trkpt>
      <trkpt lat="43.14635" lon="-1.31049">
        <ele>955.62</ele>
        <time>2026-08-29T08:26:42Z</time>
      </trkpt>
      <trkpt lat="43.14634" lon="-1.31042">
        <ele>956.45</ele>
        <time>2026-08-29T08:27:02Z</time>
      </trkpt>
      <trkpt lat="43.14634" lon="-1.31042">
        <ele>955.22</ele>
        <time>2026-08-29T08:27:24Z</time>
      </trkpt>
      <trkpt lat="43.14634" lon="-1.3104">
        <ele>954.08</ele>
        <time>2026-08-29T08:27:55Z</time>
      </trkpt>
      <trkpt lat="43.14635" lon="-1.31041">
        <ele>954.53</ele>
        <time>2026-08-29T08:28:26Z</time>
      </trkpt>
      <trkpt lat="43.1463" lon="-1.3105">
        <ele>953.76</ele>
        <time>2026-08-29T08:28:42Z</time>
      </trkpt>
      <trkpt lat="43.14622" lon="-1.31057">
        <ele>950.57</ele>
        <time>2026-08-29T08:28:59Z</time>
      </trkpt>
      <trkpt lat="43.14612" lon="-1.31046">
        <ele>950.58</ele>
        <time>2026-08-29T08:29:15Z</time>
      </trkpt>
      <trkpt lat="43.14594" lon="-1.31037">
        <ele>948.38</ele>
        <time>2026-08-29T08:29:37Z</time>
      </trkpt>
      <trkpt lat="43.14583" lon="-1.31035">
        <ele>947.7</ele>
        <time>2026-08-29T08:29:51Z</time>
      </trkpt>
      <trkpt lat="43.14582" lon="-1.31037">
        <ele>947.15</ele>
        <time>2026-08-29T08:29:53Z</time>
      </trkpt>
      <trkpt lat="43.14569" lon="-1.31038">
        <ele>944.33</ele>
        <time>2026-08-29T08:30:08Z</time>
      </trkpt>
      <trkpt lat="43.14559" lon="-1.31034">
        <ele>943.44</ele>
        <time>2026-08-29T08:30:21Z</time>
      </trkpt>
      <trkpt lat="43.14545" lon="-1.3103">
        <ele>944.74</ele>
        <time>2026-08-29T08:30:36Z</time>
      </trkpt>
      <trkpt lat="43.14539" lon="-1.31028">
        <ele>945.35</ele>
        <time>2026-08-29T08:30:43Z</time>
      </trkpt>
      <trkpt lat="43.14536" lon="-1.31027">
        <ele>945.47</ele>
        <time>2026-08-29T08:30:45Z</time>
      </trkpt>
      <trkpt lat="43.14525" lon="-1.31024">
        <ele>946.93</ele>
        <time>2026-08-29T08:31:01Z</time>
      </trkpt>
      <trkpt lat="43.14514" lon="-1.31019">
        <ele>948.88</ele>
        <time>2026-08-29T08:31:18Z</time>
      </trkpt>
      <trkpt lat="43.14507" lon="-1.31014">
        <ele>949.35</ele>
        <time>2026-08-29T08:31:35Z</time>
      </trkpt>
      <trkpt lat="43.145" lon="-1.31011">
        <ele>950.73</ele>
        <time>2026-08-29T08:31:55Z</time>
      </trkpt>
      <trkpt lat="43.14491" lon="-1.31007">
        <ele>952.06</ele>
        <time>2026-08-29T08:32:08Z</time>
      </trkpt>
      <trkpt lat="43.14477" lon="-1.31001">
        <ele>952.8</ele>
        <time>2026-08-29T08:32:26Z</time>
      </trkpt>
      <trkpt lat="43.14476" lon="-1.31001">
        <ele>952.19</ele>
        <time>2026-08-29T08:32:28Z</time>
      </trkpt>
      <trkpt lat="43.14465" lon="-1.31">
        <ele>954.04</ele>
        <time>2026-08-29T08:32:43Z</time>
      </trkpt>
      <trkpt lat="43.14453" lon="-1.30998">
        <ele>956.53</ele>
        <time>2026-08-29T08:33:03Z</time>
      </trkpt>
      <trkpt lat="43.14442" lon="-1.30996">
        <ele>959.8</ele>
        <time>2026-08-29T08:33:23Z</time>
      </trkpt>
      <trkpt lat="43.14436" lon="-1.30989">
        <ele>961.17</ele>
        <time>2026-08-29T08:33:39Z</time>
      </trkpt>
      <trkpt lat="43.14427" lon="-1.30979">
        <ele>961.71</ele>
        <time>2026-08-29T08:33:55Z</time>
      </trkpt>
      <trkpt lat="43.14423" lon="-1.30977">
        <ele>963</ele>
        <time>2026-08-29T08:34:01Z</time>
      </trkpt>
      <trkpt lat="43.14415" lon="-1.30972">
        <ele>965.5</ele>
        <time>2026-08-29T08:34:13Z</time>
      </trkpt>
      <trkpt lat="43.14408" lon="-1.30968">
        <ele>966.93</ele>
        <time>2026-08-29T08:34:30Z</time>
      </trkpt>
      <trkpt lat="43.14398" lon="-1.30958">
        <ele>966.46</ele>
        <time>2026-08-29T08:34:46Z</time>
      </trkpt>
      <trkpt lat="43.14392" lon="-1.30952">
        <ele>968.67</ele>
        <time>2026-08-29T08:35:00Z</time>
      </trkpt>
      <trkpt lat="43.14383" lon="-1.30944">
        <ele>970.17</ele>
        <time>2026-08-29T08:35:14Z</time>
      </trkpt>
      <trkpt lat="43.14374" lon="-1.30943">
        <ele>970.68</ele>
        <time>2026-08-29T08:35:32Z</time>
      </trkpt>
      <trkpt lat="43.14365" lon="-1.30942">
        <ele>973.05</ele>
        <time>2026-08-29T08:35:50Z</time>
      </trkpt>
      <trkpt lat="43.14356" lon="-1.30939">
        <ele>974.45</ele>
        <time>2026-08-29T08:36:09Z</time>
      </trkpt>
      <trkpt lat="43.14352" lon="-1.30935">
        <ele>974.89</ele>
        <time>2026-08-29T08:36:27Z</time>
      </trkpt>
      <trkpt lat="43.14342" lon="-1.30929">
        <ele>975.4</ele>
        <time>2026-08-29T08:36:42Z</time>
      </trkpt>
      <trkpt lat="43.14336" lon="-1.3092">
        <ele>976.99</ele>
        <time>2026-08-29T08:36:56Z</time>
      </trkpt>
      <trkpt lat="43.14327" lon="-1.30913">
        <ele>978.15</ele>
        <time>2026-08-29T08:37:12Z</time>
      </trkpt>
      <trkpt lat="43.1432" lon="-1.3091">
        <ele>980.05</ele>
        <time>2026-08-29T08:37:27Z</time>
      </trkpt>
      <trkpt lat="43.14312" lon="-1.3091">
        <ele>982.91</ele>
        <time>2026-08-29T08:37:44Z</time>
      </trkpt>
      <trkpt lat="43.14307" lon="-1.30909">
        <ele>985.94</ele>
        <time>2026-08-29T08:37:58Z</time>
      </trkpt>
      <trkpt lat="43.14302" lon="-1.30903">
        <ele>988.39</ele>
        <time>2026-08-29T08:38:17Z</time>
      </trkpt>
      <trkpt lat="43.14298" lon="-1.30897">
        <ele>990.08</ele>
        <time>2026-08-29T08:38:41Z</time>
      </trkpt>
      <trkpt lat="43.14293" lon="-1.30891">
        <ele>990.59</ele>
        <time>2026-08-29T08:39:00Z</time>
      </trkpt>
      <trkpt lat="43.14288" lon="-1.30882">
        <ele>992.94</ele>
        <time>2026-08-29T08:39:20Z</time>
      </trkpt>
      <trkpt lat="43.1428" lon="-1.30879">
        <ele>995.88</ele>
        <time>2026-08-29T08:39:38Z</time>
      </trkpt>
      <trkpt lat="43.14275" lon="-1.30866">
        <ele>998.07</ele>
        <time>2026-08-29T08:39:55Z</time>
      </trkpt>
      <trkpt lat="43.14272" lon="-1.30849">
        <ele>999.61</ele>
        <time>2026-08-29T08:40:14Z</time>
      </trkpt>
      <trkpt lat="43.14266" lon="-1.30834">
        <ele>998.96</ele>
        <time>2026-08-29T08:40:31Z</time>
      </trkpt>
      <trkpt lat="43.14265" lon="-1.30828">
        <ele>999.16</ele>
        <time>2026-08-29T08:40:36Z</time>
      </trkpt>
      <trkpt lat="43.14259" lon="-1.30811">
        <ele>999.79</ele>
        <time>2026-08-29T08:40:52Z</time>
      </trkpt>
      <trkpt lat="43.14254" lon="-1.30798">
        <ele>1003.4</ele>
        <time>2026-08-29T08:41:04Z</time>
      </trkpt>
      <trkpt lat="43.14254" lon="-1.30796">
        <ele>1003.14</ele>
        <time>2026-08-29T08:41:05Z</time>
      </trkpt>
      <trkpt lat="43.14247" lon="-1.30786">
        <ele>1002.32</ele>
        <time>2026-08-29T08:41:19Z</time>
      </trkpt>
      <trkpt lat="43.14246" lon="-1.30782">
        <ele>1004.05</ele>
        <time>2026-08-29T08:41:23Z</time>
      </trkpt>
      <trkpt lat="43.14245" lon="-1.30779">
        <ele>1005.14</ele>
        <time>2026-08-29T08:41:25Z</time>
      </trkpt>
      <trkpt lat="43.14237" lon="-1.30768">
        <ele>1002.26</ele>
        <time>2026-08-29T08:41:38Z</time>
      </trkpt>
      <trkpt lat="43.14235" lon="-1.30768">
        <ele>1002.7</ele>
        <time>2026-08-29T08:41:40Z</time>
      </trkpt>
      <trkpt lat="43.14233" lon="-1.30764">
        <ele>1003.97</ele>
        <time>2026-08-29T08:41:45Z</time>
      </trkpt>
      <trkpt lat="43.1423" lon="-1.30756">
        <ele>1003.11</ele>
        <time>2026-08-29T08:41:51Z</time>
      </trkpt>
      <trkpt lat="43.14226" lon="-1.30744">
        <ele>1004.67</ele>
        <time>2026-08-29T08:42:03Z</time>
      </trkpt>
      <trkpt lat="43.14221" lon="-1.3074">
        <ele>1004.31</ele>
        <time>2026-08-29T08:42:09Z</time>
      </trkpt>
      <trkpt lat="43.1422" lon="-1.30729">
        <ele>1005.81</ele>
        <time>2026-08-29T08:42:19Z</time>
      </trkpt>
      <trkpt lat="43.14219" lon="-1.30725">
        <ele>1006.18</ele>
        <time>2026-08-29T08:42:22Z</time>
      </trkpt>
      <trkpt lat="43.14219" lon="-1.30722">
        <ele>1007.11</ele>
        <time>2026-08-29T08:42:24Z</time>
      </trkpt>
      <trkpt lat="43.14217" lon="-1.30717">
        <ele>1008.25</ele>
        <time>2026-08-29T08:42:29Z</time>
      </trkpt>
      <trkpt lat="43.14214" lon="-1.30715">
        <ele>1006.65</ele>
        <time>2026-08-29T08:42:33Z</time>
      </trkpt>
      <trkpt lat="43.14209" lon="-1.3071">
        <ele>1007.56</ele>
        <time>2026-08-29T08:42:45Z</time>
      </trkpt>
      <trkpt lat="43.14207" lon="-1.30707">
        <ele>1010.84</ele>
        <time>2026-08-29T08:42:50Z</time>
      </trkpt>
      <trkpt lat="43.14207" lon="-1.30707">
        <ele>1007.8</ele>
        <time>2026-08-29T08:42:53Z</time>
      </trkpt>
      <trkpt lat="43.14206" lon="-1.30708">
        <ele>1010.63</ele>
        <time>2026-08-29T08:42:56Z</time>
      </trkpt>
      <trkpt lat="43.14206" lon="-1.30707">
        <ele>1007.88</ele>
        <time>2026-08-29T08:43:07Z</time>
      </trkpt>
      <trkpt lat="43.14206" lon="-1.30708">
        <ele>1011.49</ele>
        <time>2026-08-29T08:43:09Z</time>
      </trkpt>
      <trkpt lat="43.14206" lon="-1.30707">
        <ele>1013.01</ele>
        <time>2026-08-29T08:43:28Z</time>
      </trkpt>
      <trkpt lat="43.14206" lon="-1.30708">
        <ele>1008.94</ele>
        <time>2026-08-29T08:43:35Z</time>
      </trkpt>
      <trkpt lat="43.14205" lon="-1.30708">
        <ele>1007.5</ele>
        <time>2026-08-29T08:43:37Z</time>
      </trkpt>
      <trkpt lat="43.14205" lon="-1.30707">
        <ele>1005.57</ele>
        <time>2026-08-29T08:43:54Z</time>
      </trkpt>
      <trkpt lat="43.14205" lon="-1.30708">
        <ele>1008.73</ele>
        <time>2026-08-29T08:44:08Z</time>
      </trkpt>
      <trkpt lat="43.14207" lon="-1.30706">
        <ele>1009.01</ele>
        <time>2026-08-29T08:44:30Z</time>
      </trkpt>
      <trkpt lat="43.14207" lon="-1.30705">
        <ele>1010.56</ele>
        <time>2026-08-29T08:44:34Z</time>
      </trkpt>
      <trkpt lat="43.14207" lon="-1.30706">
        <ele>1007.11</ele>
        <time>2026-08-29T08:44:55Z</time>
      </trkpt>
      <trkpt lat="43.14207" lon="-1.30705">
        <ele>1005.09</ele>
        <time>2026-08-29T08:44:58Z</time>
      </trkpt>
      <trkpt lat="43.14207" lon="-1.30705">
        <ele>1009.76</ele>
        <time>2026-08-29T08:45:03Z</time>
      </trkpt>
      <trkpt lat="43.14207" lon="-1.30706">
        <ele>1011.06</ele>
        <time>2026-08-29T08:45:05Z</time>
      </trkpt>
      <trkpt lat="43.14208" lon="-1.30707">
        <ele>1008.01</ele>
        <time>2026-08-29T08:45:17Z</time>
      </trkpt>
      <trkpt lat="43.14208" lon="-1.30707">
        <ele>1006.99</ele>
        <time>2026-08-29T08:45:19Z</time>
      </trkpt>
      <trkpt lat="43.14208" lon="-1.30709">
        <ele>1009.62</ele>
        <time>2026-08-29T08:45:26Z</time>
      </trkpt>
      <trkpt lat="43.14208" lon="-1.30707">
        <ele>1010.81</ele>
        <time>2026-08-29T08:45:35Z</time>
      </trkpt>
      <trkpt lat="43.14209" lon="-1.30706">
        <ele>1006.16</ele>
        <time>2026-08-29T08:46:01Z</time>
      </trkpt>
      <trkpt lat="43.14209" lon="-1.30706">
        <ele>1006.5</ele>
        <time>2026-08-29T08:46:02Z</time>
      </trkpt>
      <trkpt lat="43.14208" lon="-1.30706">
        <ele>1009.55</ele>
        <time>2026-08-29T08:46:18Z</time>
      </trkpt>
      <trkpt lat="43.14208" lon="-1.30706">
        <ele>1010.18</ele>
        <time>2026-08-29T08:46:20Z</time>
      </trkpt>
      <trkpt lat="43.14208" lon="-1.30707">
        <ele>1009.07</ele>
        <time>2026-08-29T08:46:22Z</time>
      </trkpt>
      <trkpt lat="43.14206" lon="-1.30723">
        <ele>1009</ele>
        <time>2026-08-29T08:46:41Z</time>
      </trkpt>
      <trkpt lat="43.14204" lon="-1.30726">
        <ele>1005.91</ele>
        <time>2026-08-29T08:46:45Z</time>
      </trkpt>
      <trkpt lat="43.14202" lon="-1.30727">
        <ele>1005.06</ele>
        <time>2026-08-29T08:46:47Z</time>
      </trkpt>
      <trkpt lat="43.14199" lon="-1.3073">
        <ele>1006.06</ele>
        <time>2026-08-29T08:46:52Z</time>
      </trkpt>
      <trkpt lat="43.14197" lon="-1.30732">
        <ele>1007.55</ele>
        <time>2026-08-29T08:46:54Z</time>
      </trkpt>
      <trkpt lat="43.14193" lon="-1.30735">
        <ele>1004.07</ele>
        <time>2026-08-29T08:47:01Z</time>
      </trkpt>
      <trkpt lat="43.14188" lon="-1.30739">
        <ele>1002.82</ele>
        <time>2026-08-29T08:47:08Z</time>
      </trkpt>
      <trkpt lat="43.14184" lon="-1.3074">
        <ele>1001.06</ele>
        <time>2026-08-29T08:47:13Z</time>
      </trkpt>
      <trkpt lat="43.14183" lon="-1.3074">
        <ele>1001.91</ele>
        <time>2026-08-29T08:47:15Z</time>
      </trkpt>
      <trkpt lat="43.1418" lon="-1.30742">
        <ele>1001.22</ele>
        <time>2026-08-29T08:47:21Z</time>
      </trkpt>
      <trkpt lat="43.14176" lon="-1.30745">
        <ele>1001.77</ele>
        <time>2026-08-29T08:47:29Z</time>
      </trkpt>
      <trkpt lat="43.14167" lon="-1.30755">
        <ele>998.62</ele>
        <time>2026-08-29T08:47:45Z</time>
      </trkpt>
      <trkpt lat="43.14165" lon="-1.30757">
        <ele>999.11</ele>
        <time>2026-08-29T08:47:50Z</time>
      </trkpt>
      <trkpt lat="43.14162" lon="-1.3076">
        <ele>995.68</ele>
        <time>2026-08-29T08:47:56Z</time>
      </trkpt>
      <trkpt lat="43.14161" lon="-1.30761">
        <ele>996.47</ele>
        <time>2026-08-29T08:47:57Z</time>
      </trkpt>
      <trkpt lat="43.14156" lon="-1.30762">
        <ele>993.15</ele>
        <time>2026-08-29T08:48:09Z</time>
      </trkpt>
      <trkpt lat="43.14151" lon="-1.30766">
        <ele>993.17</ele>
        <time>2026-08-29T08:48:19Z</time>
      </trkpt>
      <trkpt lat="43.14147" lon="-1.30769">
        <ele>992.58</ele>
        <time>2026-08-29T08:48:28Z</time>
      </trkpt>
      <trkpt lat="43.14146" lon="-1.30769">
        <ele>990.03</ele>
        <time>2026-08-29T08:48:30Z</time>
      </trkpt>
      <trkpt lat="43.14145" lon="-1.3077">
        <ele>988.68</ele>
        <time>2026-08-29T08:48:33Z</time>
      </trkpt>
      <trkpt lat="43.14145" lon="-1.30771">
        <ele>990.24</ele>
        <time>2026-08-29T08:48:36Z</time>
      </trkpt>
      <trkpt lat="43.14144" lon="-1.30771">
        <ele>989.39</ele>
        <time>2026-08-29T08:48:38Z</time>
      </trkpt>
      <trkpt lat="43.14138" lon="-1.30766">
        <ele>989.74</ele>
        <time>2026-08-29T08:48:49Z</time>
      </trkpt>
      <trkpt lat="43.14136" lon="-1.30764">
        <ele>986.29</ele>
        <time>2026-08-29T08:48:54Z</time>
      </trkpt>
      <trkpt lat="43.14136" lon="-1.30764">
        <ele>986.24</ele>
        <time>2026-08-29T08:48:55Z</time>
      </trkpt>
      <trkpt lat="43.14134" lon="-1.30764">
        <ele>989.28</ele>
        <time>2026-08-29T08:48:58Z</time>
      </trkpt>
      <trkpt lat="43.14134" lon="-1.30763">
        <ele>989.16</ele>
        <time>2026-08-29T08:48:59Z</time>
      </trkpt>
      <trkpt lat="43.14129" lon="-1.30759">
        <ele>985.62</ele>
        <time>2026-08-29T08:49:06Z</time>
      </trkpt>
      <trkpt lat="43.14128" lon="-1.30759">
        <ele>985.8</ele>
        <time>2026-08-29T08:49:07Z</time>
      </trkpt>
      <trkpt lat="43.14123" lon="-1.3076">
        <ele>982.2</ele>
        <time>2026-08-29T08:49:19Z</time>
      </trkpt>
      <trkpt lat="43.14123" lon="-1.3076">
        <ele>982.04</ele>
        <time>2026-08-29T08:49:20Z</time>
      </trkpt>
      <trkpt lat="43.14122" lon="-1.30763">
        <ele>982.71</ele>
        <time>2026-08-29T08:49:26Z</time>
      </trkpt>
      <trkpt lat="43.14118" lon="-1.30773">
        <ele>979.07</ele>
        <time>2026-08-29T08:49:38Z</time>
      </trkpt>
      <trkpt lat="43.14108" lon="-1.30774">
        <ele>979.12</ele>
        <time>2026-08-29T08:49:55Z</time>
      </trkpt>
      <trkpt lat="43.14104" lon="-1.3078">
        <ele>976.79</ele>
        <time>2026-08-29T08:50:04Z</time>
      </trkpt>
      <trkpt lat="43.14098" lon="-1.30779">
        <ele>975.82</ele>
        <time>2026-08-29T08:50:18Z</time>
      </trkpt>
      <trkpt lat="43.14094" lon="-1.30784">
        <ele>972.48</ele>
        <time>2026-08-29T08:50:27Z</time>
      </trkpt>
      <trkpt lat="43.14092" lon="-1.30786">
        <ele>975.09</ele>
        <time>2026-08-29T08:50:32Z</time>
      </trkpt>
      <trkpt lat="43.14091" lon="-1.30788">
        <ele>972.66</ele>
        <time>2026-08-29T08:50:35Z</time>
      </trkpt>
      <trkpt lat="43.14083" lon="-1.30789">
        <ele>969.19</ele>
        <time>2026-08-29T08:50:49Z</time>
      </trkpt>
      <trkpt lat="43.14075" lon="-1.30793">
        <ele>966.63</ele>
        <time>2026-08-29T08:51:02Z</time>
      </trkpt>
      <trkpt lat="43.14072" lon="-1.30795">
        <ele>967.93</ele>
        <time>2026-08-29T08:51:08Z</time>
      </trkpt>
      <trkpt lat="43.14066" lon="-1.30797">
        <ele>966.13</ele>
        <time>2026-08-29T08:51:27Z</time>
      </trkpt>
      <trkpt lat="43.14058" lon="-1.308">
        <ele>963.84</ele>
        <time>2026-08-29T08:51:43Z</time>
      </trkpt>
      <trkpt lat="43.14043" lon="-1.30811">
        <ele>961.29</ele>
        <time>2026-08-29T08:52:04Z</time>
      </trkpt>
      <trkpt lat="43.14033" lon="-1.30825">
        <ele>961.63</ele>
        <time>2026-08-29T08:52:17Z</time>
      </trkpt>
      <trkpt lat="43.14026" lon="-1.30831">
        <ele>961.47</ele>
        <time>2026-08-29T08:52:26Z</time>
      </trkpt>
      <trkpt lat="43.14018" lon="-1.30835">
        <ele>960.86</ele>
        <time>2026-08-29T08:52:35Z</time>
      </trkpt>
      <trkpt lat="43.14008" lon="-1.3084">
        <ele>962.47</ele>
        <time>2026-08-29T08:52:48Z</time>
      </trkpt>
      <trkpt lat="43.14006" lon="-1.3084">
        <ele>960.47</ele>
        <time>2026-08-29T08:52:51Z</time>
      </trkpt>
      <trkpt lat="43.13991" lon="-1.30853">
        <ele>959.94</ele>
        <time>2026-08-29T08:53:10Z</time>
      </trkpt>
      <trkpt lat="43.13987" lon="-1.30858">
        <ele>959.21</ele>
        <time>2026-08-29T08:53:29Z</time>
      </trkpt>
      <trkpt lat="43.1398" lon="-1.30866">
        <ele>959.32</ele>
        <time>2026-08-29T08:53:38Z</time>
      </trkpt>
      <trkpt lat="43.13971" lon="-1.30877">
        <ele>959.61</ele>
        <time>2026-08-29T08:53:51Z</time>
      </trkpt>
      <trkpt lat="43.13959" lon="-1.30888">
        <ele>959.82</ele>
        <time>2026-08-29T08:54:08Z</time>
      </trkpt>
      <trkpt lat="43.13946" lon="-1.30902">
        <ele>959.8</ele>
        <time>2026-08-29T08:54:26Z</time>
      </trkpt>
      <trkpt lat="43.13929" lon="-1.30916">
        <ele>960.93</ele>
        <time>2026-08-29T08:54:47Z</time>
      </trkpt>
      <trkpt lat="43.13928" lon="-1.30917">
        <ele>961.07</ele>
        <time>2026-08-29T08:54:48Z</time>
      </trkpt>
      <trkpt lat="43.13919" lon="-1.30921">
        <ele>960.14</ele>
        <time>2026-08-29T08:55:00Z</time>
      </trkpt>
      <trkpt lat="43.1391" lon="-1.30926">
        <ele>958.07</ele>
        <time>2026-08-29T08:55:12Z</time>
      </trkpt>
      <trkpt lat="43.13897" lon="-1.30931">
        <ele>957.07</ele>
        <time>2026-08-29T08:55:30Z</time>
      </trkpt>
      <trkpt lat="43.13894" lon="-1.30933">
        <ele>955.74</ele>
        <time>2026-08-29T08:55:34Z</time>
      </trkpt>
      <trkpt lat="43.13892" lon="-1.30932">
        <ele>952.68</ele>
        <time>2026-08-29T08:55:57Z</time>
      </trkpt>
      <trkpt lat="43.13891" lon="-1.30931">
        <ele>954.62</ele>
        <time>2026-08-29T08:56:01Z</time>
      </trkpt>
      <trkpt lat="43.1388" lon="-1.30938">
        <ele>952.78</ele>
        <time>2026-08-29T08:56:22Z</time>
      </trkpt>
      <trkpt lat="43.13867" lon="-1.30947">
        <ele>949.65</ele>
        <time>2026-08-29T08:56:42Z</time>
      </trkpt>
      <trkpt lat="43.13847" lon="-1.3096">
        <ele>946.19</ele>
        <time>2026-08-29T08:57:05Z</time>
      </trkpt>
      <trkpt lat="43.13839" lon="-1.30965">
        <ele>946.36</ele>
        <time>2026-08-29T08:57:14Z</time>
      </trkpt>
      <trkpt lat="43.13834" lon="-1.3097">
        <ele>946.68</ele>
        <time>2026-08-29T08:57:19Z</time>
      </trkpt>
      <trkpt lat="43.1383" lon="-1.30974">
        <ele>947.1</ele>
        <time>2026-08-29T08:57:24Z</time>
      </trkpt>
      <trkpt lat="43.13826" lon="-1.30978">
        <ele>945.96</ele>
        <time>2026-08-29T08:57:29Z</time>
      </trkpt>
      <trkpt lat="43.13815" lon="-1.30989">
        <ele>947.5</ele>
        <time>2026-08-29T08:57:47Z</time>
      </trkpt>
      <trkpt lat="43.13806" lon="-1.30995">
        <ele>947.41</ele>
        <time>2026-08-29T08:57:59Z</time>
      </trkpt>
      <trkpt lat="43.13798" lon="-1.31001">
        <ele>945.49</ele>
        <time>2026-08-29T08:58:09Z</time>
      </trkpt>
      <trkpt lat="43.13794" lon="-1.31004">
        <ele>944.86</ele>
        <time>2026-08-29T08:58:14Z</time>
      </trkpt>
      <trkpt lat="43.13789" lon="-1.31006">
        <ele>945.18</ele>
        <time>2026-08-29T08:58:21Z</time>
      </trkpt>
      <trkpt lat="43.13776" lon="-1.31015">
        <ele>943.01</ele>
        <time>2026-08-29T08:58:39Z</time>
      </trkpt>
      <trkpt lat="43.13772" lon="-1.31016">
        <ele>941.03</ele>
        <time>2026-08-29T08:58:46Z</time>
      </trkpt>
      <trkpt lat="43.13766" lon="-1.31017">
        <ele>942.67</ele>
        <time>2026-08-29T08:58:58Z</time>
      </trkpt>
      <trkpt lat="43.13765" lon="-1.31018">
        <ele>940.36</ele>
        <time>2026-08-29T08:59:01Z</time>
      </trkpt>
      <trkpt lat="43.1376" lon="-1.31022">
        <ele>937.23</ele>
        <time>2026-08-29T08:59:09Z</time>
      </trkpt>
      <trkpt lat="43.13759" lon="-1.31022">
        <ele>937.81</ele>
        <time>2026-08-29T08:59:10Z</time>
      </trkpt>
      <trkpt lat="43.13747" lon="-1.3103">
        <ele>936.45</ele>
        <time>2026-08-29T08:59:29Z</time>
      </trkpt>
      <trkpt lat="43.13736" lon="-1.31039">
        <ele>933.07</ele>
        <time>2026-08-29T08:59:44Z</time>
      </trkpt>
      <trkpt lat="43.13735" lon="-1.31039">
        <ele>932.39</ele>
        <time>2026-08-29T08:59:46Z</time>
      </trkpt>
      <trkpt lat="43.13724" lon="-1.31044">
        <ele>933.82</ele>
        <time>2026-08-29T09:00:04Z</time>
      </trkpt>
      <trkpt lat="43.13719" lon="-1.31048">
        <ele>930.43</ele>
        <time>2026-08-29T09:00:11Z</time>
      </trkpt>
      <trkpt lat="43.13707" lon="-1.31053">
        <ele>928.9</ele>
        <time>2026-08-29T09:00:33Z</time>
      </trkpt>
      <trkpt lat="43.13703" lon="-1.31055">
        <ele>926.92</ele>
        <time>2026-08-29T09:00:39Z</time>
      </trkpt>
      <trkpt lat="43.13698" lon="-1.31056">
        <ele>924.43</ele>
        <time>2026-08-29T09:00:47Z</time>
      </trkpt>
      <trkpt lat="43.13694" lon="-1.31057">
        <ele>925.08</ele>
        <time>2026-08-29T09:00:54Z</time>
      </trkpt>
      <trkpt lat="43.13684" lon="-1.31061">
        <ele>921.74</ele>
        <time>2026-08-29T09:01:08Z</time>
      </trkpt>
      <trkpt lat="43.13673" lon="-1.31067">
        <ele>918.58</ele>
        <time>2026-08-29T09:01:24Z</time>
      </trkpt>
      <trkpt lat="43.13661" lon="-1.31072">
        <ele>917.43</ele>
        <time>2026-08-29T09:01:42Z</time>
      </trkpt>
      <trkpt lat="43.13658" lon="-1.31073">
        <ele>916.18</ele>
        <time>2026-08-29T09:01:47Z</time>
      </trkpt>
      <trkpt lat="43.13644" lon="-1.31078">
        <ele>912.85</ele>
        <time>2026-08-29T09:02:07Z</time>
      </trkpt>
      <trkpt lat="43.13639" lon="-1.31081">
        <ele>912.49</ele>
        <time>2026-08-29T09:02:16Z</time>
      </trkpt>
      <trkpt lat="43.13636" lon="-1.31083">
        <ele>911.1</ele>
        <time>2026-08-29T09:02:23Z</time>
      </trkpt>
      <trkpt lat="43.13624" lon="-1.31089">
        <ele>908.36</ele>
        <time>2026-08-29T09:02:46Z</time>
      </trkpt>
      <trkpt lat="43.13622" lon="-1.3109">
        <ele>909.59</ele>
        <time>2026-08-29T09:03:02Z</time>
      </trkpt>
      <trkpt lat="43.13618" lon="-1.31092">
        <ele>906.48</ele>
        <time>2026-08-29T09:03:10Z</time>
      </trkpt>
      <trkpt lat="43.13613" lon="-1.31094">
        <ele>905</ele>
        <time>2026-08-29T09:03:30Z</time>
      </trkpt>
      <trkpt lat="43.13603" lon="-1.31101">
        <ele>901.13</ele>
        <time>2026-08-29T09:03:48Z</time>
      </trkpt>
      <trkpt lat="43.13602" lon="-1.31101">
        <ele>901.28</ele>
        <time>2026-08-29T09:03:49Z</time>
      </trkpt>
      <trkpt lat="43.13597" lon="-1.31106">
        <ele>900.04</ele>
        <time>2026-08-29T09:03:58Z</time>
      </trkpt>
      <trkpt lat="43.13587" lon="-1.31115">
        <ele>897.72</ele>
        <time>2026-08-29T09:04:18Z</time>
      </trkpt>
      <trkpt lat="43.13583" lon="-1.31119">
        <ele>897.62</ele>
        <time>2026-08-29T09:04:26Z</time>
      </trkpt>
      <trkpt lat="43.1358" lon="-1.31121">
        <ele>896.1</ele>
        <time>2026-08-29T09:04:31Z</time>
      </trkpt>
      <trkpt lat="43.13578" lon="-1.31124">
        <ele>894.9</ele>
        <time>2026-08-29T09:04:37Z</time>
      </trkpt>
      <trkpt lat="43.13567" lon="-1.31136">
        <ele>892.39</ele>
        <time>2026-08-29T09:05:00Z</time>
      </trkpt>
      <trkpt lat="43.13555" lon="-1.31148">
        <ele>889.42</ele>
        <time>2026-08-29T09:05:21Z</time>
      </trkpt>
      <trkpt lat="43.1354" lon="-1.31159">
        <ele>888.21</ele>
        <time>2026-08-29T09:05:41Z</time>
      </trkpt>
      <trkpt lat="43.13527" lon="-1.31172">
        <ele>885.79</ele>
        <time>2026-08-29T09:06:02Z</time>
      </trkpt>
      <trkpt lat="43.13525" lon="-1.31172">
        <ele>884.5</ele>
        <time>2026-08-29T09:06:05Z</time>
      </trkpt>
      <trkpt lat="43.13514" lon="-1.31179">
        <ele>883.65</ele>
        <time>2026-08-29T09:06:21Z</time>
      </trkpt>
      <trkpt lat="43.13502" lon="-1.3119">
        <ele>881.18</ele>
        <time>2026-08-29T09:06:40Z</time>
      </trkpt>
      <trkpt lat="43.13502" lon="-1.31188">
        <ele>880.84</ele>
        <time>2026-08-29T09:06:55Z</time>
      </trkpt>
      <trkpt lat="43.13502" lon="-1.31187">
        <ele>881.45</ele>
        <time>2026-08-29T09:07:08Z</time>
      </trkpt>
      <trkpt lat="43.13502" lon="-1.31187">
        <ele>879.8</ele>
        <time>2026-08-29T09:07:11Z</time>
      </trkpt>
      <trkpt lat="43.13502" lon="-1.31188">
        <ele>884.5</ele>
        <time>2026-08-29T09:07:13Z</time>
      </trkpt>
      <trkpt lat="43.13503" lon="-1.31188">
        <ele>881.34</ele>
        <time>2026-08-29T09:07:16Z</time>
      </trkpt>
      <trkpt lat="43.135" lon="-1.31189">
        <ele>880.79</ele>
        <time>2026-08-29T09:07:45Z</time>
      </trkpt>
      <trkpt lat="43.135" lon="-1.31188">
        <ele>881.77</ele>
        <time>2026-08-29T09:08:02Z</time>
      </trkpt>
      <trkpt lat="43.13501" lon="-1.31189">
        <ele>881.52</ele>
        <time>2026-08-29T09:08:31Z</time>
      </trkpt>
      <trkpt lat="43.135" lon="-1.31191">
        <ele>880.55</ele>
        <time>2026-08-29T09:08:41Z</time>
      </trkpt>
      <trkpt lat="43.1349" lon="-1.31199">
        <ele>878.94</ele>
        <time>2026-08-29T09:08:59Z</time>
      </trkpt>
      <trkpt lat="43.1348" lon="-1.31204">
        <ele>879.49</ele>
        <time>2026-08-29T09:09:11Z</time>
      </trkpt>
      <trkpt lat="43.13473" lon="-1.31212">
        <ele>878.58</ele>
        <time>2026-08-29T09:09:23Z</time>
      </trkpt>
      <trkpt lat="43.13471" lon="-1.31214">
        <ele>879.48</ele>
        <time>2026-08-29T09:09:25Z</time>
      </trkpt>
      <trkpt lat="43.13465" lon="-1.31226">
        <ele>877.37</ele>
        <time>2026-08-29T09:09:35Z</time>
      </trkpt>
      <trkpt lat="43.13459" lon="-1.31243">
        <ele>876.52</ele>
        <time>2026-08-29T09:09:51Z</time>
      </trkpt>
      <trkpt lat="43.13451" lon="-1.31257">
        <ele>876.88</ele>
        <time>2026-08-29T09:10:05Z</time>
      </trkpt>
      <trkpt lat="43.13446" lon="-1.31266">
        <ele>877.93</ele>
        <time>2026-08-29T09:10:21Z</time>
      </trkpt>
      <trkpt lat="43.13445" lon="-1.31267">
        <ele>877.72</ele>
        <time>2026-08-29T09:10:42Z</time>
      </trkpt>
      <trkpt lat="43.13447" lon="-1.31266">
        <ele>877.56</ele>
        <time>2026-08-29T09:11:12Z</time>
      </trkpt>
      <trkpt lat="43.13443" lon="-1.31274">
        <ele>877.41</ele>
        <time>2026-08-29T09:11:29Z</time>
      </trkpt>
      <trkpt lat="43.13436" lon="-1.3129">
        <ele>876.98</ele>
        <time>2026-08-29T09:11:49Z</time>
      </trkpt>
      <trkpt lat="43.13424" lon="-1.31309">
        <ele>876.47</ele>
        <time>2026-08-29T09:12:09Z</time>
      </trkpt>
      <trkpt lat="43.13404" lon="-1.31329">
        <ele>877.12</ele>
        <time>2026-08-29T09:12:35Z</time>
      </trkpt>
      <trkpt lat="43.13402" lon="-1.31331">
        <ele>875.67</ele>
        <time>2026-08-29T09:12:38Z</time>
      </trkpt>
      <trkpt lat="43.13386" lon="-1.31346">
        <ele>874.39</ele>
        <time>2026-08-29T09:12:57Z</time>
      </trkpt>
      <trkpt lat="43.13372" lon="-1.31357">
        <ele>875.54</ele>
        <time>2026-08-29T09:13:14Z</time>
      </trkpt>
      <trkpt lat="43.13363" lon="-1.3137">
        <ele>874.2</ele>
        <time>2026-08-29T09:13:28Z</time>
      </trkpt>
      <trkpt lat="43.13355" lon="-1.31385">
        <ele>873.84</ele>
        <time>2026-08-29T09:13:44Z</time>
      </trkpt>
      <trkpt lat="43.13346" lon="-1.31403">
        <ele>873.33</ele>
        <time>2026-08-29T09:14:01Z</time>
      </trkpt>
      <trkpt lat="43.13338" lon="-1.31417">
        <ele>876.33</ele>
        <time>2026-08-29T09:14:13Z</time>
      </trkpt>
      <trkpt lat="43.13336" lon="-1.31421">
        <ele>875</ele>
        <time>2026-08-29T09:14:16Z</time>
      </trkpt>
      <trkpt lat="43.13329" lon="-1.31436">
        <ele>875.43</ele>
        <time>2026-08-29T09:14:30Z</time>
      </trkpt>
      <trkpt lat="43.13328" lon="-1.31438">
        <ele>874.74</ele>
        <time>2026-08-29T09:14:31Z</time>
      </trkpt>
      <trkpt lat="43.13323" lon="-1.3145">
        <ele>873.74</ele>
        <time>2026-08-29T09:14:43Z</time>
      </trkpt>
      <trkpt lat="43.13317" lon="-1.31464">
        <ele>871.95</ele>
        <time>2026-08-29T09:14:59Z</time>
      </trkpt>
      <trkpt lat="43.13316" lon="-1.31466">
        <ele>870.89</ele>
        <time>2026-08-29T09:15:01Z</time>
      </trkpt>
      <trkpt lat="43.13311" lon="-1.31481">
        <ele>869.65</ele>
        <time>2026-08-29T09:15:16Z</time>
      </trkpt>
      <trkpt lat="43.13305" lon="-1.31498">
        <ele>867.27</ele>
        <time>2026-08-29T09:15:34Z</time>
      </trkpt>
      <trkpt lat="43.13304" lon="-1.31499">
        <ele>867.18</ele>
        <time>2026-08-29T09:15:35Z</time>
      </trkpt>
      <trkpt lat="43.133" lon="-1.31507">
        <ele>864.08</ele>
        <time>2026-08-29T09:15:43Z</time>
      </trkpt>
      <trkpt lat="43.13296" lon="-1.31524">
        <ele>864</ele>
        <time>2026-08-29T09:15:56Z</time>
      </trkpt>
      <trkpt lat="43.1329" lon="-1.31538">
        <ele>863.79</ele>
        <time>2026-08-29T09:16:09Z</time>
      </trkpt>
      <trkpt lat="43.13287" lon="-1.31557">
        <ele>862.61</ele>
        <time>2026-08-29T09:16:25Z</time>
      </trkpt>
      <trkpt lat="43.13281" lon="-1.31575">
        <ele>862.24</ele>
        <time>2026-08-29T09:16:40Z</time>
      </trkpt>
      <trkpt lat="43.1328" lon="-1.31576">
        <ele>862.52</ele>
        <time>2026-08-29T09:16:41Z</time>
      </trkpt>
      <trkpt lat="43.13271" lon="-1.31584">
        <ele>866.09</ele>
        <time>2026-08-29T09:16:53Z</time>
      </trkpt>
      <trkpt lat="43.1327" lon="-1.31584">
        <ele>866.32</ele>
        <time>2026-08-29T09:16:54Z</time>
      </trkpt>
      <trkpt lat="43.13269" lon="-1.31585">
        <ele>862.3</ele>
        <time>2026-08-29T09:16:55Z</time>
      </trkpt>
      <trkpt lat="43.13264" lon="-1.31586">
        <ele>864.57</ele>
        <time>2026-08-29T09:17:01Z</time>
      </trkpt>
      <trkpt lat="43.13264" lon="-1.31585">
        <ele>860.68</ele>
        <time>2026-08-29T09:17:06Z</time>
      </trkpt>
      <trkpt lat="43.13264" lon="-1.31585">
        <ele>860.51</ele>
        <time>2026-08-29T09:17:07Z</time>
      </trkpt>
      <trkpt lat="43.13263" lon="-1.31585">
        <ele>862.64</ele>
        <time>2026-08-29T09:17:28Z</time>
      </trkpt>
      <trkpt lat="43.13263" lon="-1.31586">
        <ele>861.6</ele>
        <time>2026-08-29T09:17:34Z</time>
      </trkpt>
      <trkpt lat="43.13265" lon="-1.31587">
        <ele>862.13</ele>
        <time>2026-08-29T09:18:05Z</time>
      </trkpt>
      <trkpt lat="43.13265" lon="-1.31587">
        <ele>862.98</ele>
        <time>2026-08-29T09:18:07Z</time>
      </trkpt>
      <trkpt lat="43.13265" lon="-1.31587">
        <ele>861.45</ele>
        <time>2026-08-29T09:18:10Z</time>
      </trkpt>
      <trkpt lat="43.13266" lon="-1.31589">
        <ele>861.79</ele>
        <time>2026-08-29T09:18:42Z</time>
      </trkpt>
      <trkpt lat="43.13265" lon="-1.31588">
        <ele>861.3</ele>
        <time>2026-08-29T09:18:50Z</time>
      </trkpt>
      <trkpt lat="43.13265" lon="-1.3159">
        <ele>863.1</ele>
        <time>2026-08-29T09:19:20Z</time>
      </trkpt>
      <trkpt lat="43.13265" lon="-1.31589">
        <ele>862.45</ele>
        <time>2026-08-29T09:19:50Z</time>
      </trkpt>
      <trkpt lat="43.13265" lon="-1.31589">
        <ele>862.46</ele>
        <time>2026-08-29T09:19:51Z</time>
      </trkpt>
      <trkpt lat="43.13265" lon="-1.31586">
        <ele>861.26</ele>
        <time>2026-08-29T09:19:57Z</time>
      </trkpt>
      <trkpt lat="43.13265" lon="-1.31584">
        <ele>863.91</ele>
        <time>2026-08-29T09:20:07Z</time>
      </trkpt>
      <trkpt lat="43.13265" lon="-1.31583">
        <ele>860.73</ele>
        <time>2026-08-29T09:20:12Z</time>
      </trkpt>
      <trkpt lat="43.13265" lon="-1.31583">
        <ele>862.9</ele>
        <time>2026-08-29T09:20:15Z</time>
      </trkpt>
      <trkpt lat="43.13264" lon="-1.31585">
        <ele>863.32</ele>
        <time>2026-08-29T09:20:39Z</time>
      </trkpt>
      <trkpt lat="43.13264" lon="-1.31585">
        <ele>860.27</ele>
        <time>2026-08-29T09:20:46Z</time>
      </trkpt>
      <trkpt lat="43.13263" lon="-1.31586">
        <ele>860.57</ele>
        <time>2026-08-29T09:21:15Z</time>
      </trkpt>
      <trkpt lat="43.13266" lon="-1.3159">
        <ele>860.98</ele>
        <time>2026-08-29T09:21:34Z</time>
      </trkpt>
      <trkpt lat="43.13266" lon="-1.31592">
        <ele>859.29</ele>
        <time>2026-08-29T09:21:53Z</time>
      </trkpt>
      <trkpt lat="43.13266" lon="-1.31593">
        <ele>861.58</ele>
        <time>2026-08-29T09:22:11Z</time>
      </trkpt>
      <trkpt lat="43.13266" lon="-1.31597">
        <ele>860.79</ele>
        <time>2026-08-29T09:22:27Z</time>
      </trkpt>
      <trkpt lat="43.13262" lon="-1.31603">
        <ele>861.81</ele>
        <time>2026-08-29T09:22:40Z</time>
      </trkpt>
      <trkpt lat="43.1326" lon="-1.31607">
        <ele>862.29</ele>
        <time>2026-08-29T09:22:45Z</time>
      </trkpt>
      <trkpt lat="43.13259" lon="-1.3161">
        <ele>861.99</ele>
        <time>2026-08-29T09:22:47Z</time>
      </trkpt>
      <trkpt lat="43.13257" lon="-1.31613">
        <ele>862.96</ele>
        <time>2026-08-29T09:22:50Z</time>
      </trkpt>
      <trkpt lat="43.13257" lon="-1.31615">
        <ele>863.62</ele>
        <time>2026-08-29T09:22:52Z</time>
      </trkpt>
      <trkpt lat="43.13255" lon="-1.3162">
        <ele>863.89</ele>
        <time>2026-08-29T09:22:57Z</time>
      </trkpt>
      <trkpt lat="43.13252" lon="-1.31631">
        <ele>864.67</ele>
        <time>2026-08-29T09:23:09Z</time>
      </trkpt>
      <trkpt lat="43.13253" lon="-1.31641">
        <ele>867</ele>
        <time>2026-08-29T09:23:27Z</time>
      </trkpt>
      <trkpt lat="43.13251" lon="-1.31653">
        <ele>869.21</ele>
        <time>2026-08-29T09:23:46Z</time>
      </trkpt>
      <trkpt lat="43.1325" lon="-1.3166">
        <ele>870.05</ele>
        <time>2026-08-29T09:24:02Z</time>
      </trkpt>
      <trkpt lat="43.13249" lon="-1.3167">
        <ele>870.73</ele>
        <time>2026-08-29T09:24:17Z</time>
      </trkpt>
      <trkpt lat="43.1325" lon="-1.31681">
        <ele>873.15</ele>
        <time>2026-08-29T09:24:31Z</time>
      </trkpt>
      <trkpt lat="43.13251" lon="-1.31686">
        <ele>873.26</ele>
        <time>2026-08-29T09:24:46Z</time>
      </trkpt>
      <trkpt lat="43.13251" lon="-1.31698">
        <ele>874.22</ele>
        <time>2026-08-29T09:25:05Z</time>
      </trkpt>
      <trkpt lat="43.13251" lon="-1.317">
        <ele>874.29</ele>
        <time>2026-08-29T09:25:07Z</time>
      </trkpt>
      <trkpt lat="43.13251" lon="-1.31708">
        <ele>874.97</ele>
        <time>2026-08-29T09:25:14Z</time>
      </trkpt>
      <trkpt lat="43.13249" lon="-1.31712">
        <ele>878.42</ele>
        <time>2026-08-29T09:25:21Z</time>
      </trkpt>
      <trkpt lat="43.13249" lon="-1.31712">
        <ele>878.23</ele>
        <time>2026-08-29T09:25:22Z</time>
      </trkpt>
      <trkpt lat="43.13249" lon="-1.3172">
        <ele>876.34</ele>
        <time>2026-08-29T09:25:34Z</time>
      </trkpt>
      <trkpt lat="43.13248" lon="-1.31725">
        <ele>877.23</ele>
        <time>2026-08-29T09:25:38Z</time>
      </trkpt>
      <trkpt lat="43.13247" lon="-1.31739">
        <ele>879.01</ele>
        <time>2026-08-29T09:25:53Z</time>
      </trkpt>
      <trkpt lat="43.13246" lon="-1.31746">
        <ele>879.14</ele>
        <time>2026-08-29T09:26:01Z</time>
      </trkpt>
      <trkpt lat="43.13243" lon="-1.31761">
        <ele>881.22</ele>
        <time>2026-08-29T09:26:16Z</time>
      </trkpt>
      <trkpt lat="43.13241" lon="-1.31771">
        <ele>882.31</ele>
        <time>2026-08-29T09:26:28Z</time>
      </trkpt>
      <trkpt lat="43.13238" lon="-1.31784">
        <ele>884.94</ele>
        <time>2026-08-29T09:26:44Z</time>
      </trkpt>
      <trkpt lat="43.13234" lon="-1.318">
        <ele>885.31</ele>
        <time>2026-08-29T09:27:02Z</time>
      </trkpt>
      <trkpt lat="43.13232" lon="-1.31814">
        <ele>886.99</ele>
        <time>2026-08-29T09:27:18Z</time>
      </trkpt>
      <trkpt lat="43.13232" lon="-1.31835">
        <ele>887.75</ele>
        <time>2026-08-29T09:27:37Z</time>
      </trkpt>
      <trkpt lat="43.13234" lon="-1.31842">
        <ele>887.43</ele>
        <time>2026-08-29T09:27:43Z</time>
      </trkpt>
      <trkpt lat="43.13236" lon="-1.31857">
        <ele>887.04</ele>
        <time>2026-08-29T09:27:55Z</time>
      </trkpt>
      <trkpt lat="43.13236" lon="-1.31859">
        <ele>887.3</ele>
        <time>2026-08-29T09:27:57Z</time>
      </trkpt>
      <trkpt lat="43.13236" lon="-1.31864">
        <ele>887.44</ele>
        <time>2026-08-29T09:28:01Z</time>
      </trkpt>
      <trkpt lat="43.13236" lon="-1.31868">
        <ele>888.36</ele>
        <time>2026-08-29T09:28:05Z</time>
      </trkpt>
      <trkpt lat="43.13234" lon="-1.31881">
        <ele>889.66</ele>
        <time>2026-08-29T09:28:16Z</time>
      </trkpt>
      <trkpt lat="43.13233" lon="-1.31882">
        <ele>889.9</ele>
        <time>2026-08-29T09:28:17Z</time>
      </trkpt>
      <trkpt lat="43.13232" lon="-1.31889">
        <ele>890.18</ele>
        <time>2026-08-29T09:28:24Z</time>
      </trkpt>
      <trkpt lat="43.13231" lon="-1.31892">
        <ele>890.32</ele>
        <time>2026-08-29T09:28:26Z</time>
      </trkpt>
      <trkpt lat="43.13231" lon="-1.31894">
        <ele>890.78</ele>
        <time>2026-08-29T09:28:28Z</time>
      </trkpt>
      <trkpt lat="43.13226" lon="-1.31907">
        <ele>891.63</ele>
        <time>2026-08-29T09:28:41Z</time>
      </trkpt>
      <trkpt lat="43.13226" lon="-1.31909">
        <ele>893.87</ele>
        <time>2026-08-29T09:28:48Z</time>
      </trkpt>
      <trkpt lat="43.13222" lon="-1.31922">
        <ele>893.83</ele>
        <time>2026-08-29T09:29:05Z</time>
      </trkpt>
      <trkpt lat="43.13215" lon="-1.31941">
        <ele>895.28</ele>
        <time>2026-08-29T09:29:24Z</time>
      </trkpt>
      <trkpt lat="43.1321" lon="-1.31958">
        <ele>897.34</ele>
        <time>2026-08-29T09:29:42Z</time>
      </trkpt>
      <trkpt lat="43.13202" lon="-1.31979">
        <ele>898.53</ele>
        <time>2026-08-29T09:30:04Z</time>
      </trkpt>
      <trkpt lat="43.13202" lon="-1.3198">
        <ele>898.99</ele>
        <time>2026-08-29T09:30:05Z</time>
      </trkpt>
      <trkpt lat="43.13195" lon="-1.31994">
        <ele>900.69</ele>
        <time>2026-08-29T09:30:21Z</time>
      </trkpt>
      <trkpt lat="43.13188" lon="-1.32013">
        <ele>902.77</ele>
        <time>2026-08-29T09:30:40Z</time>
      </trkpt>
      <trkpt lat="43.13185" lon="-1.32017">
        <ele>904.57</ele>
        <time>2026-08-29T09:31:00Z</time>
      </trkpt>
      <trkpt lat="43.13179" lon="-1.32032">
        <ele>906.08</ele>
        <time>2026-08-29T09:31:16Z</time>
      </trkpt>
      <trkpt lat="43.13177" lon="-1.32036">
        <ele>908.8</ele>
        <time>2026-08-29T09:31:21Z</time>
      </trkpt>
      <trkpt lat="43.13172" lon="-1.3205">
        <ele>908.62</ele>
        <time>2026-08-29T09:31:38Z</time>
      </trkpt>
      <trkpt lat="43.13171" lon="-1.32055">
        <ele>909.15</ele>
        <time>2026-08-29T09:31:41Z</time>
      </trkpt>
      <trkpt lat="43.13167" lon="-1.3207">
        <ele>908.98</ele>
        <time>2026-08-29T09:31:55Z</time>
      </trkpt>
      <trkpt lat="43.13166" lon="-1.32089">
        <ele>908.82</ele>
        <time>2026-08-29T09:32:12Z</time>
      </trkpt>
      <trkpt lat="43.13168" lon="-1.32105">
        <ele>908.82</ele>
        <time>2026-08-29T09:32:25Z</time>
      </trkpt>
      <trkpt lat="43.13168" lon="-1.32109">
        <ele>910.24</ele>
        <time>2026-08-29T09:32:29Z</time>
      </trkpt>
      <trkpt lat="43.13168" lon="-1.32117">
        <ele>911.25</ele>
        <time>2026-08-29T09:32:35Z</time>
      </trkpt>
      <trkpt lat="43.13168" lon="-1.32124">
        <ele>909.38</ele>
        <time>2026-08-29T09:32:41Z</time>
      </trkpt>
      <trkpt lat="43.13168" lon="-1.32141">
        <ele>911.16</ele>
        <time>2026-08-29T09:32:56Z</time>
      </trkpt>
      <trkpt lat="43.13169" lon="-1.32146">
        <ele>911.48</ele>
        <time>2026-08-29T09:33:00Z</time>
      </trkpt>
      <trkpt lat="43.13168" lon="-1.32149">
        <ele>911.12</ele>
        <time>2026-08-29T09:33:02Z</time>
      </trkpt>
      <trkpt lat="43.13169" lon="-1.32156">
        <ele>912</ele>
        <time>2026-08-29T09:33:08Z</time>
      </trkpt>
      <trkpt lat="43.13169" lon="-1.32167">
        <ele>911.96</ele>
        <time>2026-08-29T09:33:15Z</time>
      </trkpt>
      <trkpt lat="43.13171" lon="-1.32187">
        <ele>913.19</ele>
        <time>2026-08-29T09:33:30Z</time>
      </trkpt>
      <trkpt lat="43.1317" lon="-1.32204">
        <ele>912.53</ele>
        <time>2026-08-29T09:33:42Z</time>
      </trkpt>
      <trkpt lat="43.13169" lon="-1.32222">
        <ele>912.85</ele>
        <time>2026-08-29T09:33:57Z</time>
      </trkpt>
      <trkpt lat="43.13167" lon="-1.32243">
        <ele>913.81</ele>
        <time>2026-08-29T09:34:14Z</time>
      </trkpt>
      <trkpt lat="43.13167" lon="-1.32246">
        <ele>915.45</ele>
        <time>2026-08-29T09:34:28Z</time>
      </trkpt>
      <trkpt lat="43.1317" lon="-1.32251">
        <ele>912.25</ele>
        <time>2026-08-29T09:34:47Z</time>
      </trkpt>
      <trkpt lat="43.1317" lon="-1.32252">
        <ele>911.96</ele>
        <time>2026-08-29T09:34:48Z</time>
      </trkpt>
      <trkpt lat="43.13176" lon="-1.3226">
        <ele>910.76</ele>
        <time>2026-08-29T09:35:05Z</time>
      </trkpt>
      <trkpt lat="43.13178" lon="-1.32271">
        <ele>908.08</ele>
        <time>2026-08-29T09:35:25Z</time>
      </trkpt>
      <trkpt lat="43.13181" lon="-1.32285">
        <ele>906.96</ele>
        <time>2026-08-29T09:35:41Z</time>
      </trkpt>
      <trkpt lat="43.13188" lon="-1.32293">
        <ele>907.08</ele>
        <time>2026-08-29T09:35:52Z</time>
      </trkpt>
      <trkpt lat="43.13192" lon="-1.32304">
        <ele>903.74</ele>
        <time>2026-08-29T09:36:05Z</time>
      </trkpt>
      <trkpt lat="43.13192" lon="-1.32307">
        <ele>902.31</ele>
        <time>2026-08-29T09:36:09Z</time>
      </trkpt>
      <trkpt lat="43.132" lon="-1.3232">
        <ele>902.49</ele>
        <time>2026-08-29T09:36:27Z</time>
      </trkpt>
      <trkpt lat="43.13209" lon="-1.32326">
        <ele>902.78</ele>
        <time>2026-08-29T09:36:38Z</time>
      </trkpt>
      <trkpt lat="43.13221" lon="-1.3234">
        <ele>901.48</ele>
        <time>2026-08-29T09:36:57Z</time>
      </trkpt>
      <trkpt lat="43.1323" lon="-1.32352">
        <ele>900.27</ele>
        <time>2026-08-29T09:37:14Z</time>
      </trkpt>
      <trkpt lat="43.13238" lon="-1.32364">
        <ele>898.62</ele>
        <time>2026-08-29T09:37:31Z</time>
      </trkpt>
      <trkpt lat="43.13247" lon="-1.32382">
        <ele>897.84</ele>
        <time>2026-08-29T09:37:53Z</time>
      </trkpt>
      <trkpt lat="43.13252" lon="-1.32394">
        <ele>896.02</ele>
        <time>2026-08-29T09:38:10Z</time>
      </trkpt>
      <trkpt lat="43.13256" lon="-1.32404">
        <ele>894.51</ele>
        <time>2026-08-29T09:38:26Z</time>
      </trkpt>
      <trkpt lat="43.13257" lon="-1.32415">
        <ele>895.42</ele>
        <time>2026-08-29T09:38:41Z</time>
      </trkpt>
      <trkpt lat="43.13263" lon="-1.32424">
        <ele>893.71</ele>
        <time>2026-08-29T09:38:56Z</time>
      </trkpt>
      <trkpt lat="43.13269" lon="-1.32441">
        <ele>892.21</ele>
        <time>2026-08-29T09:39:15Z</time>
      </trkpt>
      <trkpt lat="43.13271" lon="-1.32456">
        <ele>892.23</ele>
        <time>2026-08-29T09:39:32Z</time>
      </trkpt>
      <trkpt lat="43.13276" lon="-1.32468">
        <ele>889</ele>
        <time>2026-08-29T09:39:49Z</time>
      </trkpt>
      <trkpt lat="43.13281" lon="-1.32485">
        <ele>887.53</ele>
        <time>2026-08-29T09:40:07Z</time>
      </trkpt>
      <trkpt lat="43.13285" lon="-1.32501">
        <ele>886.56</ele>
        <time>2026-08-29T09:40:24Z</time>
      </trkpt>
      <trkpt lat="43.13287" lon="-1.32509">
        <ele>885.54</ele>
        <time>2026-08-29T09:40:47Z</time>
      </trkpt>
      <trkpt lat="43.1329" lon="-1.3252">
        <ele>883.18</ele>
        <time>2026-08-29T09:41:00Z</time>
      </trkpt>
      <trkpt lat="43.1329" lon="-1.32542">
        <ele>881.52</ele>
        <time>2026-08-29T09:41:22Z</time>
      </trkpt>
      <trkpt lat="43.13289" lon="-1.32559">
        <ele>880.29</ele>
        <time>2026-08-29T09:41:40Z</time>
      </trkpt>
      <trkpt lat="43.13289" lon="-1.32572">
        <ele>878.03</ele>
        <time>2026-08-29T09:42:01Z</time>
      </trkpt>
      <trkpt lat="43.1329" lon="-1.32581">
        <ele>877.91</ele>
        <time>2026-08-29T09:42:22Z</time>
      </trkpt>
      <trkpt lat="43.13292" lon="-1.32593">
        <ele>877.66</ele>
        <time>2026-08-29T09:42:33Z</time>
      </trkpt>
      <trkpt lat="43.13293" lon="-1.32606">
        <ele>876.45</ele>
        <time>2026-08-29T09:42:49Z</time>
      </trkpt>
      <trkpt lat="43.13293" lon="-1.3261">
        <ele>875.84</ele>
        <time>2026-08-29T09:43:04Z</time>
      </trkpt>
      <trkpt lat="43.13293" lon="-1.32626">
        <ele>874.86</ele>
        <time>2026-08-29T09:43:20Z</time>
      </trkpt>
      <trkpt lat="43.13293" lon="-1.32642">
        <ele>871.86</ele>
        <time>2026-08-29T09:43:41Z</time>
      </trkpt>
      <trkpt lat="43.13296" lon="-1.32658">
        <ele>869.9</ele>
        <time>2026-08-29T09:43:59Z</time>
      </trkpt>
      <trkpt lat="43.133" lon="-1.32672">
        <ele>867.72</ele>
        <time>2026-08-29T09:44:18Z</time>
      </trkpt>
      <trkpt lat="43.13301" lon="-1.32675">
        <ele>866.88</ele>
        <time>2026-08-29T09:44:20Z</time>
      </trkpt>
      <trkpt lat="43.13306" lon="-1.32692">
        <ele>864.98</ele>
        <time>2026-08-29T09:44:41Z</time>
      </trkpt>
      <trkpt lat="43.13312" lon="-1.32712">
        <ele>862.41</ele>
        <time>2026-08-29T09:45:00Z</time>
      </trkpt>
      <trkpt lat="43.13316" lon="-1.32728">
        <ele>860.83</ele>
        <time>2026-08-29T09:45:19Z</time>
      </trkpt>
      <trkpt lat="43.13321" lon="-1.32747">
        <ele>858.4</ele>
        <time>2026-08-29T09:45:38Z</time>
      </trkpt>
      <trkpt lat="43.13321" lon="-1.32767">
        <ele>857.53</ele>
        <time>2026-08-29T09:45:57Z</time>
      </trkpt>
      <trkpt lat="43.13326" lon="-1.32776">
        <ele>855.83</ele>
        <time>2026-08-29T09:46:15Z</time>
      </trkpt>
      <trkpt lat="43.1333" lon="-1.32781">
        <ele>853.59</ele>
        <time>2026-08-29T09:46:35Z</time>
      </trkpt>
      <trkpt lat="43.13341" lon="-1.32787">
        <ele>851.56</ele>
        <time>2026-08-29T09:46:58Z</time>
      </trkpt>
      <trkpt lat="43.13354" lon="-1.32795">
        <ele>849.33</ele>
        <time>2026-08-29T09:47:15Z</time>
      </trkpt>
      <trkpt lat="43.13361" lon="-1.32809">
        <ele>846.81</ele>
        <time>2026-08-29T09:47:36Z</time>
      </trkpt>
      <trkpt lat="43.13371" lon="-1.32825">
        <ele>844.36</ele>
        <time>2026-08-29T09:47:57Z</time>
      </trkpt>
      <trkpt lat="43.13379" lon="-1.3284">
        <ele>842.31</ele>
        <time>2026-08-29T09:48:14Z</time>
      </trkpt>
      <trkpt lat="43.13389" lon="-1.32861">
        <ele>839.85</ele>
        <time>2026-08-29T09:48:38Z</time>
      </trkpt>
      <trkpt lat="43.13394" lon="-1.32874">
        <ele>839.84</ele>
        <time>2026-08-29T09:48:59Z</time>
      </trkpt>
      <trkpt lat="43.13396" lon="-1.32893">
        <ele>837.4</ele>
        <time>2026-08-29T09:49:16Z</time>
      </trkpt>
      <trkpt lat="43.13401" lon="-1.32916">
        <ele>834.81</ele>
        <time>2026-08-29T09:49:37Z</time>
      </trkpt>
      <trkpt lat="43.13406" lon="-1.32928">
        <ele>833.73</ele>
        <time>2026-08-29T09:49:49Z</time>
      </trkpt>
      <trkpt lat="43.13411" lon="-1.32944">
        <ele>832.74</ele>
        <time>2026-08-29T09:50:03Z</time>
      </trkpt>
      <trkpt lat="43.13417" lon="-1.32962">
        <ele>831.57</ele>
        <time>2026-08-29T09:50:18Z</time>
      </trkpt>
      <trkpt lat="43.13423" lon="-1.32977">
        <ele>830.48</ele>
        <time>2026-08-29T09:50:32Z</time>
      </trkpt>
      <trkpt lat="43.13427" lon="-1.32989">
        <ele>828.76</ele>
        <time>2026-08-29T09:50:42Z</time>
      </trkpt>
      <trkpt lat="43.13429" lon="-1.32996">
        <ele>827.39</ele>
        <time>2026-08-29T09:50:49Z</time>
      </trkpt>
      <trkpt lat="43.13431" lon="-1.32999">
        <ele>827.4</ele>
        <time>2026-08-29T09:50:52Z</time>
      </trkpt>
      <trkpt lat="43.13434" lon="-1.33007">
        <ele>826.24</ele>
        <time>2026-08-29T09:51:01Z</time>
      </trkpt>
      <trkpt lat="43.13438" lon="-1.33017">
        <ele>824.76</ele>
        <time>2026-08-29T09:51:18Z</time>
      </trkpt>
      <trkpt lat="43.13444" lon="-1.33028">
        <ele>822.99</ele>
        <time>2026-08-29T09:51:36Z</time>
      </trkpt>
      <trkpt lat="43.13455" lon="-1.33034">
        <ele>820.81</ele>
        <time>2026-08-29T09:51:56Z</time>
      </trkpt>
      <trkpt lat="43.13457" lon="-1.33034">
        <ele>819.19</ele>
        <time>2026-08-29T09:52:15Z</time>
      </trkpt>
      <trkpt lat="43.1346" lon="-1.33036">
        <ele>818.33</ele>
        <time>2026-08-29T09:52:35Z</time>
      </trkpt>
      <trkpt lat="43.13461" lon="-1.3304">
        <ele>818.49</ele>
        <time>2026-08-29T09:52:59Z</time>
      </trkpt>
      <trkpt lat="43.13476" lon="-1.33054">
        <ele>815.49</ele>
        <time>2026-08-29T09:53:21Z</time>
      </trkpt>
      <trkpt lat="43.13488" lon="-1.33071">
        <ele>812.74</ele>
        <time>2026-08-29T09:53:45Z</time>
      </trkpt>
      <trkpt lat="43.1349" lon="-1.33073">
        <ele>812.32</ele>
        <time>2026-08-29T09:53:47Z</time>
      </trkpt>
      <trkpt lat="43.13506" lon="-1.33091">
        <ele>810.28</ele>
        <time>2026-08-29T09:54:10Z</time>
      </trkpt>
      <trkpt lat="43.1351" lon="-1.33096">
        <ele>810.44</ele>
        <time>2026-08-29T09:54:16Z</time>
      </trkpt>
      <trkpt lat="43.13515" lon="-1.331">
        <ele>810.23</ele>
        <time>2026-08-29T09:54:21Z</time>
      </trkpt>
      <trkpt lat="43.13529" lon="-1.33115">
        <ele>810.06</ele>
        <time>2026-08-29T09:54:37Z</time>
      </trkpt>
      <trkpt lat="43.13539" lon="-1.33123">
        <ele>810.61</ele>
        <time>2026-08-29T09:54:49Z</time>
      </trkpt>
      <trkpt lat="43.13543" lon="-1.33127">
        <ele>810.85</ele>
        <time>2026-08-29T09:54:54Z</time>
      </trkpt>
      <trkpt lat="43.13546" lon="-1.3313">
        <ele>811.12</ele>
        <time>2026-08-29T09:54:58Z</time>
      </trkpt>
      <trkpt lat="43.13559" lon="-1.33139">
        <ele>812.24</ele>
        <time>2026-08-29T09:55:13Z</time>
      </trkpt>
      <trkpt lat="43.13575" lon="-1.33152">
        <ele>813.55</ele>
        <time>2026-08-29T09:55:33Z</time>
      </trkpt>
      <trkpt lat="43.1359" lon="-1.33166">
        <ele>815.79</ele>
        <time>2026-08-29T09:55:54Z</time>
      </trkpt>
      <trkpt lat="43.13591" lon="-1.33169">
        <ele>816.89</ele>
        <time>2026-08-29T09:56:13Z</time>
      </trkpt>
      <trkpt lat="43.13599" lon="-1.33177">
        <ele>816.34</ele>
        <time>2026-08-29T09:56:25Z</time>
      </trkpt>
      <trkpt lat="43.13603" lon="-1.33185">
        <ele>816.54</ele>
        <time>2026-08-29T09:56:32Z</time>
      </trkpt>
      <trkpt lat="43.1361" lon="-1.33198">
        <ele>815.6</ele>
        <time>2026-08-29T09:56:46Z</time>
      </trkpt>
      <trkpt lat="43.1362" lon="-1.33212">
        <ele>815.3</ele>
        <time>2026-08-29T09:57:06Z</time>
      </trkpt>
      <trkpt lat="43.1363" lon="-1.33228">
        <ele>815.67</ele>
        <time>2026-08-29T09:57:22Z</time>
      </trkpt>
      <trkpt lat="43.13639" lon="-1.33241">
        <ele>815.25</ele>
        <time>2026-08-29T09:57:37Z</time>
      </trkpt>
      <trkpt lat="43.1365" lon="-1.3326">
        <ele>815.33</ele>
        <time>2026-08-29T09:57:57Z</time>
      </trkpt>
      <trkpt lat="43.13655" lon="-1.33282">
        <ele>814.13</ele>
        <time>2026-08-29T09:58:15Z</time>
      </trkpt>
      <trkpt lat="43.1365" lon="-1.3331">
        <ele>813.04</ele>
        <time>2026-08-29T09:58:34Z</time>
      </trkpt>
      <trkpt lat="43.13643" lon="-1.33332">
        <ele>810.23</ele>
        <time>2026-08-29T09:58:54Z</time>
      </trkpt>
      <trkpt lat="43.13646" lon="-1.33353">
        <ele>810.13</ele>
        <time>2026-08-29T09:59:12Z</time>
      </trkpt>
      <trkpt lat="43.13653" lon="-1.33369">
        <ele>811.11</ele>
        <time>2026-08-29T09:59:26Z</time>
      </trkpt>
      <trkpt lat="43.13655" lon="-1.33376">
        <ele>810.93</ele>
        <time>2026-08-29T09:59:31Z</time>
      </trkpt>
      <trkpt lat="43.13659" lon="-1.33385">
        <ele>810.7</ele>
        <time>2026-08-29T09:59:39Z</time>
      </trkpt>
      <trkpt lat="43.13661" lon="-1.33388">
        <ele>810.4</ele>
        <time>2026-08-29T09:59:42Z</time>
      </trkpt>
      <trkpt lat="43.13675" lon="-1.33403">
        <ele>810.97</ele>
        <time>2026-08-29T10:00:00Z</time>
      </trkpt>
      <trkpt lat="43.13686" lon="-1.33426">
        <ele>810.69</ele>
        <time>2026-08-29T10:00:19Z</time>
      </trkpt>
      <trkpt lat="43.137" lon="-1.33448">
        <ele>811.62</ele>
        <time>2026-08-29T10:00:40Z</time>
      </trkpt>
      <trkpt lat="43.13712" lon="-1.33458">
        <ele>812.61</ele>
        <time>2026-08-29T10:00:58Z</time>
      </trkpt>
      <trkpt lat="43.13716" lon="-1.33466">
        <ele>812.78</ele>
        <time>2026-08-29T10:01:09Z</time>
      </trkpt>
      <trkpt lat="43.13726" lon="-1.33482">
        <ele>813.26</ele>
        <time>2026-08-29T10:01:23Z</time>
      </trkpt>
      <trkpt lat="43.13736" lon="-1.33496">
        <ele>814.35</ele>
        <time>2026-08-29T10:01:37Z</time>
      </trkpt>
      <trkpt lat="43.13744" lon="-1.33514">
        <ele>814.42</ele>
        <time>2026-08-29T10:01:55Z</time>
      </trkpt>
      <trkpt lat="43.13753" lon="-1.33532">
        <ele>813.36</ele>
        <time>2026-08-29T10:02:15Z</time>
      </trkpt>
      <trkpt lat="43.13754" lon="-1.33541">
        <ele>813.55</ele>
        <time>2026-08-29T10:02:33Z</time>
      </trkpt>
      <trkpt lat="43.13758" lon="-1.33557">
        <ele>812.19</ele>
        <time>2026-08-29T10:02:56Z</time>
      </trkpt>
      <trkpt lat="43.13763" lon="-1.33568">
        <ele>812.14</ele>
        <time>2026-08-29T10:03:17Z</time>
      </trkpt>
      <trkpt lat="43.13767" lon="-1.33587">
        <ele>811.54</ele>
        <time>2026-08-29T10:03:35Z</time>
      </trkpt>
      <trkpt lat="43.13773" lon="-1.33603">
        <ele>810.97</ele>
        <time>2026-08-29T10:03:50Z</time>
      </trkpt>
      <trkpt lat="43.1378" lon="-1.33623">
        <ele>809.85</ele>
        <time>2026-08-29T10:04:10Z</time>
      </trkpt>
      <trkpt lat="43.13786" lon="-1.33637">
        <ele>810.23</ele>
        <time>2026-08-29T10:04:24Z</time>
      </trkpt>
      <trkpt lat="43.13791" lon="-1.33649">
        <ele>810.43</ele>
        <time>2026-08-29T10:04:38Z</time>
      </trkpt>
      <trkpt lat="43.13796" lon="-1.33667">
        <ele>811.46</ele>
        <time>2026-08-29T10:04:55Z</time>
      </trkpt>
      <trkpt lat="43.13798" lon="-1.33683">
        <ele>809.98</ele>
        <time>2026-08-29T10:05:16Z</time>
      </trkpt>
      <trkpt lat="43.13804" lon="-1.33701">
        <ele>809.29</ele>
        <time>2026-08-29T10:05:34Z</time>
      </trkpt>
      <trkpt lat="43.13811" lon="-1.33719">
        <ele>809.66</ele>
        <time>2026-08-29T10:05:51Z</time>
      </trkpt>
      <trkpt lat="43.1382" lon="-1.3374">
        <ele>810.98</ele>
        <time>2026-08-29T10:06:11Z</time>
      </trkpt>
      <trkpt lat="43.13828" lon="-1.33755">
        <ele>812.94</ele>
        <time>2026-08-29T10:06:28Z</time>
      </trkpt>
      <trkpt lat="43.1384" lon="-1.33769">
        <ele>815.04</ele>
        <time>2026-08-29T10:06:47Z</time>
      </trkpt>
      <trkpt lat="43.13847" lon="-1.33785">
        <ele>814.78</ele>
        <time>2026-08-29T10:07:02Z</time>
      </trkpt>
      <trkpt lat="43.13856" lon="-1.33802">
        <ele>814.68</ele>
        <time>2026-08-29T10:07:22Z</time>
      </trkpt>
      <trkpt lat="43.1386" lon="-1.33808">
        <ele>814.6</ele>
        <time>2026-08-29T10:07:28Z</time>
      </trkpt>
      <trkpt lat="43.13867" lon="-1.33822">
        <ele>813.33</ele>
        <time>2026-08-29T10:07:42Z</time>
      </trkpt>
      <trkpt lat="43.13879" lon="-1.33835">
        <ele>812.72</ele>
        <time>2026-08-29T10:08:02Z</time>
      </trkpt>
      <trkpt lat="43.13892" lon="-1.33847">
        <ele>813.48</ele>
        <time>2026-08-29T10:08:20Z</time>
      </trkpt>
      <trkpt lat="43.13905" lon="-1.33851">
        <ele>812.58</ele>
        <time>2026-08-29T10:08:38Z</time>
      </trkpt>
      <trkpt lat="43.13918" lon="-1.33856">
        <ele>811.77</ele>
        <time>2026-08-29T10:08:57Z</time>
      </trkpt>
      <trkpt lat="43.13941" lon="-1.33859">
        <ele>810.99</ele>
        <time>2026-08-29T10:09:19Z</time>
      </trkpt>
      <trkpt lat="43.13955" lon="-1.33855">
        <ele>813.07</ele>
        <time>2026-08-29T10:09:35Z</time>
      </trkpt>
      <trkpt lat="43.13959" lon="-1.33856">
        <ele>813.42</ele>
        <time>2026-08-29T10:09:48Z</time>
      </trkpt>
      <trkpt lat="43.1397" lon="-1.33854">
        <ele>812.89</ele>
        <time>2026-08-29T10:10:06Z</time>
      </trkpt>
      <trkpt lat="43.13983" lon="-1.33849">
        <ele>812.34</ele>
        <time>2026-08-29T10:10:24Z</time>
      </trkpt>
      <trkpt lat="43.13988" lon="-1.33849">
        <ele>811.02</ele>
        <time>2026-08-29T10:10:32Z</time>
      </trkpt>
      <trkpt lat="43.13992" lon="-1.33852">
        <ele>809.97</ele>
        <time>2026-08-29T10:10:40Z</time>
      </trkpt>
      <trkpt lat="43.14015" lon="-1.33856">
        <ele>808.21</ele>
        <time>2026-08-29T10:11:05Z</time>
      </trkpt>
      <trkpt lat="43.14022" lon="-1.33855">
        <ele>807.11</ele>
        <time>2026-08-29T10:11:19Z</time>
      </trkpt>
      <trkpt lat="43.14026" lon="-1.33853">
        <ele>807.15</ele>
        <time>2026-08-29T10:11:25Z</time>
      </trkpt>
      <trkpt lat="43.14036" lon="-1.33842">
        <ele>807.57</ele>
        <time>2026-08-29T10:11:44Z</time>
      </trkpt>
      <trkpt lat="43.14039" lon="-1.33843">
        <ele>807.02</ele>
        <time>2026-08-29T10:11:49Z</time>
      </trkpt>
      <trkpt lat="43.14048" lon="-1.33844">
        <ele>805.08</ele>
        <time>2026-08-29T10:12:05Z</time>
      </trkpt>
      <trkpt lat="43.14053" lon="-1.33843">
        <ele>804.12</ele>
        <time>2026-08-29T10:12:11Z</time>
      </trkpt>
      <trkpt lat="43.14063" lon="-1.33847">
        <ele>802.04</ele>
        <time>2026-08-29T10:12:27Z</time>
      </trkpt>
      <trkpt lat="43.14076" lon="-1.33851">
        <ele>799.86</ele>
        <time>2026-08-29T10:12:41Z</time>
      </trkpt>
      <trkpt lat="43.14083" lon="-1.33853">
        <ele>799.62</ele>
        <time>2026-08-29T10:12:48Z</time>
      </trkpt>
      <trkpt lat="43.14089" lon="-1.33853">
        <ele>799</ele>
        <time>2026-08-29T10:13:02Z</time>
      </trkpt>
      <trkpt lat="43.14093" lon="-1.33853">
        <ele>798.5</ele>
        <time>2026-08-29T10:13:07Z</time>
      </trkpt>
      <trkpt lat="43.14102" lon="-1.33851">
        <ele>796.51</ele>
        <time>2026-08-29T10:13:25Z</time>
      </trkpt>
      <trkpt lat="43.14105" lon="-1.33852">
        <ele>796.51</ele>
        <time>2026-08-29T10:13:29Z</time>
      </trkpt>
      <trkpt lat="43.14117" lon="-1.33846">
        <ele>793.89</ele>
        <time>2026-08-29T10:13:46Z</time>
      </trkpt>
      <trkpt lat="43.14119" lon="-1.33843">
        <ele>793.73</ele>
        <time>2026-08-29T10:13:51Z</time>
      </trkpt>
      <trkpt lat="43.14121" lon="-1.33842">
        <ele>793.41</ele>
        <time>2026-08-29T10:13:54Z</time>
      </trkpt>
      <trkpt lat="43.14141" lon="-1.33825">
        <ele>791.38</ele>
        <time>2026-08-29T10:14:18Z</time>
      </trkpt>
      <trkpt lat="43.14141" lon="-1.33823">
        <ele>791.42</ele>
        <time>2026-08-29T10:14:21Z</time>
      </trkpt>
      <trkpt lat="43.14152" lon="-1.33802">
        <ele>788.24</ele>
        <time>2026-08-29T10:14:53Z</time>
      </trkpt>
      <trkpt lat="43.1416" lon="-1.33799">
        <ele>785.23</ele>
        <time>2026-08-29T10:15:06Z</time>
      </trkpt>
      <trkpt lat="43.14162" lon="-1.33799">
        <ele>784.98</ele>
        <time>2026-08-29T10:15:07Z</time>
      </trkpt>
      <trkpt lat="43.14178" lon="-1.33801">
        <ele>783.4</ele>
        <time>2026-08-29T10:15:22Z</time>
      </trkpt>
      <trkpt lat="43.14191" lon="-1.33797">
        <ele>780.65</ele>
        <time>2026-08-29T10:15:42Z</time>
      </trkpt>
      <trkpt lat="43.14196" lon="-1.33795">
        <ele>779.72</ele>
        <time>2026-08-29T10:15:48Z</time>
      </trkpt>
      <trkpt lat="43.14205" lon="-1.33784">
        <ele>778.18</ele>
        <time>2026-08-29T10:16:03Z</time>
      </trkpt>
      <trkpt lat="43.14205" lon="-1.33782">
        <ele>778.04</ele>
        <time>2026-08-29T10:16:16Z</time>
      </trkpt>
      <trkpt lat="43.14213" lon="-1.33779">
        <ele>777.3</ele>
        <time>2026-08-29T10:16:25Z</time>
      </trkpt>
      <trkpt lat="43.14213" lon="-1.33778">
        <ele>777.42</ele>
        <time>2026-08-29T10:16:26Z</time>
      </trkpt>
      <trkpt lat="43.1422" lon="-1.33768">
        <ele>776.32</ele>
        <time>2026-08-29T10:16:40Z</time>
      </trkpt>
      <trkpt lat="43.14226" lon="-1.3376">
        <ele>774.97</ele>
        <time>2026-08-29T10:16:52Z</time>
      </trkpt>
      <trkpt lat="43.14231" lon="-1.33751">
        <ele>774.44</ele>
        <time>2026-08-29T10:17:05Z</time>
      </trkpt>
      <trkpt lat="43.14234" lon="-1.33745">
        <ele>772.96</ele>
        <time>2026-08-29T10:17:14Z</time>
      </trkpt>
      <trkpt lat="43.14239" lon="-1.33735">
        <ele>771.03</ele>
        <time>2026-08-29T10:17:26Z</time>
      </trkpt>
      <trkpt lat="43.1424" lon="-1.33733">
        <ele>770.34</ele>
        <time>2026-08-29T10:17:30Z</time>
      </trkpt>
      <trkpt lat="43.14245" lon="-1.33727">
        <ele>768.36</ele>
        <time>2026-08-29T10:17:42Z</time>
      </trkpt>
      <trkpt lat="43.14247" lon="-1.33725">
        <ele>768.21</ele>
        <time>2026-08-29T10:17:46Z</time>
      </trkpt>
      <trkpt lat="43.14255" lon="-1.33718">
        <ele>767.69</ele>
        <time>2026-08-29T10:17:58Z</time>
      </trkpt>
      <trkpt lat="43.14264" lon="-1.33714">
        <ele>764.82</ele>
        <time>2026-08-29T10:18:17Z</time>
      </trkpt>
      <trkpt lat="43.14271" lon="-1.33706">
        <ele>761.58</ele>
        <time>2026-08-29T10:18:33Z</time>
      </trkpt>
      <trkpt lat="43.14273" lon="-1.33704">
        <ele>760.92</ele>
        <time>2026-08-29T10:18:38Z</time>
      </trkpt>
      <trkpt lat="43.14281" lon="-1.33698">
        <ele>759.22</ele>
        <time>2026-08-29T10:18:50Z</time>
      </trkpt>
      <trkpt lat="43.14286" lon="-1.33692">
        <ele>754.66</ele>
        <time>2026-08-29T10:18:59Z</time>
      </trkpt>
      <trkpt lat="43.14289" lon="-1.3369">
        <ele>756.76</ele>
        <time>2026-08-29T10:19:03Z</time>
      </trkpt>
      <trkpt lat="43.14296" lon="-1.33686">
        <ele>755.21</ele>
        <time>2026-08-29T10:19:14Z</time>
      </trkpt>
      <trkpt lat="43.14302" lon="-1.33681">
        <ele>754.14</ele>
        <time>2026-08-29T10:19:26Z</time>
      </trkpt>
      <trkpt lat="43.14304" lon="-1.3368">
        <ele>752.53</ele>
        <time>2026-08-29T10:19:34Z</time>
      </trkpt>
      <trkpt lat="43.14308" lon="-1.33673">
        <ele>749.49</ele>
        <time>2026-08-29T10:19:55Z</time>
      </trkpt>
      <trkpt lat="43.1431" lon="-1.33673">
        <ele>748.52</ele>
        <time>2026-08-29T10:20:03Z</time>
      </trkpt>
      <trkpt lat="43.14316" lon="-1.33671">
        <ele>745.6</ele>
        <time>2026-08-29T10:20:32Z</time>
      </trkpt>
      <trkpt lat="43.14322" lon="-1.33667">
        <ele>744.14</ele>
        <time>2026-08-29T10:20:43Z</time>
      </trkpt>
      <trkpt lat="43.14324" lon="-1.33667">
        <ele>744.03</ele>
        <time>2026-08-29T10:20:45Z</time>
      </trkpt>
      <trkpt lat="43.14327" lon="-1.33668">
        <ele>743.29</ele>
        <time>2026-08-29T10:20:49Z</time>
      </trkpt>
      <trkpt lat="43.14338" lon="-1.33664">
        <ele>739.93</ele>
        <time>2026-08-29T10:21:12Z</time>
      </trkpt>
      <trkpt lat="43.14352" lon="-1.33659">
        <ele>736.8</ele>
        <time>2026-08-29T10:21:35Z</time>
      </trkpt>
      <trkpt lat="43.14366" lon="-1.33652">
        <ele>734.01</ele>
        <time>2026-08-29T10:21:58Z</time>
      </trkpt>
      <trkpt lat="43.14376" lon="-1.33651">
        <ele>731.14</ele>
        <time>2026-08-29T10:22:17Z</time>
      </trkpt>
      <trkpt lat="43.14386" lon="-1.33645">
        <ele>730.36</ele>
        <time>2026-08-29T10:22:34Z</time>
      </trkpt>
      <trkpt lat="43.14402" lon="-1.33638">
        <ele>728.67</ele>
        <time>2026-08-29T10:22:57Z</time>
      </trkpt>
      <trkpt lat="43.14417" lon="-1.33632">
        <ele>726.65</ele>
        <time>2026-08-29T10:23:15Z</time>
      </trkpt>
      <trkpt lat="43.14438" lon="-1.33623">
        <ele>725.89</ele>
        <time>2026-08-29T10:23:37Z</time>
      </trkpt>
      <trkpt lat="43.14455" lon="-1.33618">
        <ele>724.51</ele>
        <time>2026-08-29T10:23:55Z</time>
      </trkpt>
      <trkpt lat="43.14459" lon="-1.33617">
        <ele>725.18</ele>
        <time>2026-08-29T10:23:59Z</time>
      </trkpt>
      <trkpt lat="43.14464" lon="-1.33614">
        <ele>724.79</ele>
        <time>2026-08-29T10:24:04Z</time>
      </trkpt>
      <trkpt lat="43.14468" lon="-1.33613">
        <ele>725.04</ele>
        <time>2026-08-29T10:24:09Z</time>
      </trkpt>
      <trkpt lat="43.14475" lon="-1.3361">
        <ele>725.25</ele>
        <time>2026-08-29T10:24:17Z</time>
      </trkpt>
      <trkpt lat="43.14478" lon="-1.33609">
        <ele>725.23</ele>
        <time>2026-08-29T10:24:20Z</time>
      </trkpt>
      <trkpt lat="43.14489" lon="-1.33607">
        <ele>725.73</ele>
        <time>2026-08-29T10:24:32Z</time>
      </trkpt>
      <trkpt lat="43.14495" lon="-1.33602">
        <ele>725.31</ele>
        <time>2026-08-29T10:24:40Z</time>
      </trkpt>
      <trkpt lat="43.145" lon="-1.33593">
        <ele>726.22</ele>
        <time>2026-08-29T10:24:54Z</time>
      </trkpt>
      <trkpt lat="43.14501" lon="-1.33587">
        <ele>727.68</ele>
        <time>2026-08-29T10:25:01Z</time>
      </trkpt>
      <trkpt lat="43.14499" lon="-1.33582">
        <ele>728.27</ele>
        <time>2026-08-29T10:25:06Z</time>
      </trkpt>
      <trkpt lat="43.14495" lon="-1.33569">
        <ele>730.72</ele>
        <time>2026-08-29T10:25:21Z</time>
      </trkpt>
      <trkpt lat="43.14492" lon="-1.33556">
        <ele>732.02</ele>
        <time>2026-08-29T10:25:37Z</time>
      </trkpt>
      <trkpt lat="43.14493" lon="-1.33555">
        <ele>729.38</ele>
        <time>2026-08-29T10:25:51Z</time>
      </trkpt>
      <trkpt lat="43.14493" lon="-1.33555">
        <ele>732.89</ele>
        <time>2026-08-29T10:25:58Z</time>
      </trkpt>
      <trkpt lat="43.14493" lon="-1.33555">
        <ele>734.37</ele>
        <time>2026-08-29T10:26:00Z</time>
      </trkpt>
      <trkpt lat="43.14494" lon="-1.33555">
        <ele>730.98</ele>
        <time>2026-08-29T10:26:04Z</time>
      </trkpt>
      <trkpt lat="43.14493" lon="-1.33555">
        <ele>730.86</ele>
        <time>2026-08-29T10:26:05Z</time>
      </trkpt>
      <trkpt lat="43.14494" lon="-1.33554">
        <ele>730.46</ele>
        <time>2026-08-29T10:26:24Z</time>
      </trkpt>
      <trkpt lat="43.14493" lon="-1.33552">
        <ele>730.39</ele>
        <time>2026-08-29T10:26:46Z</time>
      </trkpt>
      <trkpt lat="43.14493" lon="-1.33552">
        <ele>730.58</ele>
        <time>2026-08-29T10:27:14Z</time>
      </trkpt>
      <trkpt lat="43.14495" lon="-1.33552">
        <ele>729.33</ele>
        <time>2026-08-29T10:27:24Z</time>
      </trkpt>
      <trkpt lat="43.14495" lon="-1.33552">
        <ele>730.75</ele>
        <time>2026-08-29T10:27:27Z</time>
      </trkpt>
      <trkpt lat="43.14494" lon="-1.33554">
        <ele>730.8</ele>
        <time>2026-08-29T10:27:34Z</time>
      </trkpt>
      <trkpt lat="43.14494" lon="-1.33555">
        <ele>729.98</ele>
        <time>2026-08-29T10:27:38Z</time>
      </trkpt>
      <trkpt lat="43.14494" lon="-1.33556">
        <ele>728.53</ele>
        <time>2026-08-29T10:27:44Z</time>
      </trkpt>
      <trkpt lat="43.14496" lon="-1.33555">
        <ele>729.79</ele>
        <time>2026-08-29T10:27:57Z</time>
      </trkpt>
      <trkpt lat="43.14495" lon="-1.33556">
        <ele>730.79</ele>
        <time>2026-08-29T10:28:23Z</time>
      </trkpt>
      <trkpt lat="43.14495" lon="-1.33554">
        <ele>730.83</ele>
        <time>2026-08-29T10:28:53Z</time>
      </trkpt>
      <trkpt lat="43.14494" lon="-1.33554">
        <ele>729.06</ele>
        <time>2026-08-29T10:29:04Z</time>
      </trkpt>
      <trkpt lat="43.14493" lon="-1.33554">
        <ele>729.71</ele>
        <time>2026-08-29T10:29:12Z</time>
      </trkpt>
      <trkpt lat="43.14492" lon="-1.33555">
        <ele>730.56</ele>
        <time>2026-08-29T10:29:31Z</time>
      </trkpt>
      <trkpt lat="43.14491" lon="-1.33554">
        <ele>729.2</ele>
        <time>2026-08-29T10:29:53Z</time>
      </trkpt>
      <trkpt lat="43.14489" lon="-1.33555">
        <ele>729.53</ele>
        <time>2026-08-29T10:30:23Z</time>
      </trkpt>
    </trkseg>
  </trk>
</gpx>